NOAA Web Site Link Tides and Currents Home Page Transparent placeholder image

Notice: We are experiencing a wide spread communication outage affecting the availability of water level and meteorological data for some of our stations, as well as several critical bridge clearance measurements. We are diligently working to resolve this data outage. Please direct all questions to tide.predictions@noaa.gov or call (301) 713-2815.

PORTS® Data Listing: 8637689 Yorktown USCG Training Center, VA

CO-OPS RAW PORTS DATA

************************      PRELIMINARY DATA      ************************** 

     THIS RAW DATA HAS NOT BEEN SUBJECT TO THE NATIONAL OCEAN SERVICE'S        
     QUALITY CONTROL OR QUALITY ASSURANCE PROCEDURES AND DOES NOT MEET         
     THE CRITERIA AND STANDARDS OF OFFICIAL NATIONAL OCEAN SERVICE             
     DATA.  IT IS RELEASED FOR LIMITED PUBLIC USE AS PRELIMINARY DATA TO       
     BE USED ONLY WITH APPROPRIATE CAUTION.                                    

************************      PRELIMINARY DATA      ************************** 


       CD   -   Calendar date
       T    -   Time
       TZ   -   Timezone
       PW   -   Predicted water level (feet above MLLW)
       OW   -   Observed water level (feet above MLLW)
       WS   -   Wind speed (knots)
       WD   -   Wind direction (degrees true)
       WG   -   Wind gust (knots)
       AT   -   Air temperature (degrees farenheit)
       WT   -   Water temperature (degrees farenheit)
       AP   -   Air pressure (millibars)
       SA   -   Salinty (PSU - Practical Salinity Units)
       SG   -   Specific gravity
       RH   -   Relative humidity
       AG   -   Air gap (feet)
       VI   -   Visibility (nautical miles)

       ** NOTE **
       A variable that has its data fields filled with "9"s, indicates that
       data was not collected for that sample period.
       **********


STATION NAME: Yorktown USCG Training Center (8637689)
****************************************************************************************************
    CD       T    TZ    PW     OW    WS   WD   WG    AT    WT    AP    SA    SG     RH    AG   VI
****************************************************************************************************
2019/04/18 16:48 EDT    0.23   0.67   13  205   24  80.4  60.3 1012.9 12.5  1.009 -99.9 -99.99 -9.99
2019/04/18 16:54 EDT    0.28   0.73   13  213   19  80.2  60.1 1012.9 12.6  1.010 -99.9 -99.99 -9.99
2019/04/18 17:00 EDT    0.33   0.77   15  209   21  80.6  60.1 1012.6 12.6  1.010 -99.9 -99.99 -9.99
2019/04/18 17:06 EDT    0.38   0.82   13  182   20  80.1  60.1 1012.6 12.6  1.010 -99.9 -99.99 -9.99
2019/04/18 17:12 EDT    0.44   0.88   13  188   18  80.2  60.1 1012.5 12.6  1.010 -99.9 -99.99 -9.99
2019/04/18 17:18 EDT    0.50   0.94   11  183   20  80.1  60.1 1012.5 12.6  1.010 -99.9 -99.99 -9.99
2019/04/18 17:24 EDT    0.57   1.00    9  184   19  80.8  60.3 1012.5 12.6  1.010 -99.9 -99.99 -9.99
2019/04/18 17:30 EDT    0.63   1.07   13  169   18  80.1  60.3 1012.4 12.6  1.010 -99.9 -99.99 -9.99
2019/04/18 17:36 EDT    0.70   1.14    9  190   17  80.1  60.4 1012.4 12.6  1.010 -99.9 -99.99 -9.99
2019/04/18 17:42 EDT    0.77   1.22   14  185   20  79.9  60.6 1012.3 12.6  1.010 -99.9 -99.99 -9.99
2019/04/18 17:48 EDT    0.84   1.30   11  186   19  79.9  60.6 1012.2 12.7  1.010 -99.9 -99.99 -9.99
2019/04/18 17:54 EDT    0.92   1.38   11  173   17  79.5  60.6 1012.2 12.7  1.010 -99.9 -99.99 -9.99
2019/04/18 18:00 EDT    1.00   1.46   11  179   16  79.5  60.6 1012.2 12.7  1.010 -99.9 -99.99 -9.99
2019/04/18 18:06 EDT    1.08   1.54   12  175   15  79.5  61.2 1012.2 12.7  1.010 -99.9 -99.99 -9.99
2019/04/18 18:12 EDT    1.16   1.61   10  183   14  79.7  60.8 1012.1 12.7  1.010 -99.9 -99.99 -9.99
2019/04/18 18:18 EDT    1.24   1.70   11  190   19  79.7  61.0 1012.1 12.7  1.010 -99.9 -99.99 -9.99
2019/04/18 18:24 EDT    1.32   1.79   11  193   15  79.5  60.8 1012.0 12.7  1.010 -99.9 -99.99 -9.99
2019/04/18 18:30 EDT    1.41   1.88   11  190   16  79.7  60.6 1012.0 12.7  1.010 -99.9 -99.99 -9.99
2019/04/18 18:36 EDT    1.49   1.97   10  184   15  79.3  60.4 1012.0 12.8  1.010 -99.9 -99.99 -9.99
2019/04/18 18:42 EDT    1.57   2.06   12  186   18  78.8  61.0 1011.9 12.7  1.010 -99.9 -99.99 -9.99
2019/04/18 18:48 EDT    1.66   2.14   13  183   18  78.6  60.6 1011.9 12.7  1.010 -99.9 -99.99 -9.99
2019/04/18 18:54 EDT    1.74   2.22   11  182   20  78.1  60.4 1011.9 12.8  1.010 -99.9 -99.99 -9.99
2019/04/18 19:00 EDT    1.83   2.31   14  181   21  78.4  60.4 1011.9 12.8  1.010 -99.9 -99.99 -9.99
2019/04/18 19:06 EDT    1.91   2.39   13  179   17  77.5  60.3 1012.0 12.8  1.010 -99.9 -99.99 -9.99
2019/04/18 19:12 EDT    1.99   2.47   14  183   20  77.7  60.1 1012.1 12.8  1.010 -99.9 -99.99 -9.99
2019/04/18 19:18 EDT    2.07   2.55   14  188   19  77.4  59.9 1012.1 12.8  1.010 -99.9 -99.99 -9.99
2019/04/18 19:24 EDT    2.15   2.62   13  180   18  76.8  59.7 1012.2 12.9  1.010 -99.9 -99.99 -9.99
2019/04/18 19:30 EDT    2.23   2.69   13  187   19  76.6  59.5 1012.2 12.9  1.010 -99.9 -99.99 -9.99
2019/04/18 19:36 EDT    2.30   2.76   10  185   18  76.3  59.5 1012.3 12.8  1.010 -99.9 -99.99 -9.99
2019/04/18 19:42 EDT    2.37   2.83   11  186   14  75.7  59.5 1012.3 12.8  1.010 -99.9 -99.99 -9.99
2019/04/18 19:48 EDT    2.44   2.90   12  180   19  75.9  59.7 1012.2 12.8  1.010 -99.9 -99.99 -9.99
2019/04/18 19:54 EDT    2.51   2.96   10  179   16  75.2  59.5 1012.2 12.8  1.010 -99.9 -99.99 -9.99
2019/04/18 20:00 EDT    2.57   3.03    9  182   13  74.8  59.5 1012.2 12.8  1.010 -99.9 -99.99 -9.99
2019/04/18 20:06 EDT    2.63   3.08   10  183   15  74.7  59.4 1012.3 12.9  1.010 -99.9 -99.99 -9.99
2019/04/18 20:12 EDT    2.69   3.14   13  175   17  75.0  59.5 1012.3 12.8  1.010 -99.9 -99.99 -9.99
2019/04/18 20:18 EDT    2.74   3.19   13  182   19  74.5  59.7 1012.3 12.8  1.010 -99.9 -99.99 -9.99
2019/04/18 20:24 EDT    2.79   3.24   12  176   17  74.3  59.9 1012.4 12.8  1.010 -99.9 -99.99 -9.99
2019/04/18 20:30 EDT    2.83   3.29   15  182   19  74.5  59.9 1012.5 12.8  1.010 -99.9 -99.99 -9.99
2019/04/18 20:36 EDT    2.87   3.33   14  184   19  74.5  60.1 1012.6 12.8  1.010 -99.9 -99.99 -9.99
2019/04/18 20:42 EDT    2.91   3.37   13  179   20  74.1  60.4 1012.7 12.7  1.010 -99.9 -99.99 -9.99
2019/04/18 20:48 EDT    2.94   3.40   13  178   16  74.1  60.4 1012.8 12.7  1.010 -99.9 -99.99 -9.99
2019/04/18 20:54 EDT    2.97   3.42   10  184   17  73.4  60.4 1012.9 12.7  1.010 -99.9 -99.99 -9.99
2019/04/18 21:00 EDT    2.99   3.45   11  189   18  73.4  60.4 1013.0 12.7  1.010 -99.9 -99.99 -9.99
2019/04/18 21:06 EDT    3.01   3.46   12  184   18  73.0  60.4 1013.1 12.8  1.010 -99.9 -99.99 -9.99
2019/04/18 21:12 EDT    3.03   3.47   14  185   17  73.0  60.4 1013.1 12.8  1.010 -99.9 -99.99 -9.99
2019/04/18 21:18 EDT    3.04   3.47   14  181   20  72.5  60.4 1013.2 12.8  1.010 -99.9 -99.99 -9.99
2019/04/18 21:24 EDT    3.04   3.47   13  191   18  72.5  60.4 1013.2 12.8  1.010 -99.9 -99.99 -9.99
2019/04/18 21:30 EDT    3.05   3.47   10  188   14  72.1  60.3 1013.2 12.8  1.010 -99.9 -99.99 -9.99
2019/04/18 21:36 EDT    3.04   3.46   14  185   17  72.3  60.3 1013.1 12.8  1.010 -99.9 -99.99 -9.99
2019/04/18 21:42 EDT    3.04   3.45   12  188   17  72.1  60.3 1013.2 12.8  1.010 -99.9 -99.99 -9.99
2019/04/18 21:48 EDT    3.03   3.43   16  184   21  72.0  60.3 1013.2 12.8  1.010 -99.9 -99.99 -9.99
2019/04/18 21:54 EDT    3.01   3.41   15  186   21  72.0  60.3 1013.2 12.8  1.010 -99.9 -99.99 -9.99
2019/04/18 22:00 EDT    3.00   3.39   13  186   20  71.8  60.3 1013.2 12.8  1.010 -99.9 -99.99 -9.99
2019/04/18 22:06 EDT    2.97   3.37   13  190   21  71.6  59.7 1013.2 13.0  1.010 -99.9 -99.99 -9.99
2019/04/18 22:12 EDT    2.95   3.34   13  190   18  71.4  59.7 1013.2 13.0  1.010 -99.9 -99.99 -9.99
2019/04/18 22:18 EDT    2.92   3.31   13  182   18  71.1  60.1 1013.1 12.9  1.010 -99.9 -99.99 -9.99
2019/04/18 22:24 EDT    2.89   3.27   12  184   17  71.1  60.1 1013.1 12.9  1.010 -99.9 -99.99 -9.99
2019/04/18 22:30 EDT    2.85   3.23   12  187   21  70.9  59.7 1013.1 13.0  1.010 -99.9 -99.99 -9.99
2019/04/18 22:36 EDT    2.82   3.19   12  184   19  71.1  59.7 1013.1 13.0  1.010 -99.9 -99.99 -9.99
2019/04/18 22:42 EDT    2.77   3.13   11  190   17  70.5  59.9 1013.3 13.0  1.010 -99.9 -99.99 -9.99
2019/04/18 22:48 EDT    2.73   3.07   13  189   17  70.7  59.9 1013.2 13.0  1.010 -99.9 -99.99 -9.99
2019/04/18 22:54 EDT    2.68   3.02   13  194   24  70.7  59.9 1013.3 13.0  1.010 -99.9 -99.99 -9.99
2019/04/18 23:00 EDT    2.63   2.96   17  190   23  70.7  60.1 1013.2 12.9  1.010 -99.9 -99.99 -9.99
2019/04/18 23:06 EDT    2.58   2.91   13  191   20  70.3  60.1 1013.3 12.9  1.010 -99.9 -99.99 -9.99
2019/04/18 23:12 EDT    2.53   2.86   15  188   22  70.3  60.3 1013.2 12.9  1.010 -99.9 -99.99 -9.99
2019/04/18 23:18 EDT    2.47   2.81   13  192   19  70.2  60.1 1013.3 12.9  1.010 -99.9 -99.99 -9.99
2019/04/18 23:24 EDT    2.41   2.75   11  197   17  70.0  60.1 1013.3 12.9  1.010 -99.9 -99.99 -9.99
2019/04/18 23:30 EDT    2.35   2.69   13  188   21  70.0  60.3 1013.3 12.8  1.010 -99.9 -99.99 -9.99
2019/04/18 23:36 EDT    2.28   2.64    9  196   14  69.8  59.9 1013.4 12.9  1.010 -99.9 -99.99 -9.99
2019/04/18 23:42 EDT    2.22   2.58   14  194   22  70.0  59.7 1013.3 13.0  1.010 -99.9 -99.99 -9.99
2019/04/18 23:48 EDT    2.15   2.52   11  195   17  69.6  60.3 1013.4 12.9  1.010 -99.9 -99.99 -9.99
2019/04/18 23:54 EDT    2.08   2.46   11  190   20  69.8  60.3 1013.3 12.8  1.010 -99.9 -99.99 -9.99
2019/04/19 00:00 EDT    2.01   2.40   15  197   20  69.8  60.3 1013.3 12.8  1.010 -99.9 -99.99 -9.99
2019/04/19 00:06 EDT    1.94   2.33   14  196   18  69.8  60.3 1013.4 12.8  1.010 -99.9 -99.99 -9.99
2019/04/19 00:12 EDT    1.86   2.26   11  190   18  69.4  60.4 1013.3 12.7  1.010 -99.9 -99.99 -9.99
2019/04/19 00:18 EDT    1.79   2.19   10  196   17  69.6  60.3 1013.3 12.8  1.010 -99.9 -99.99 -9.99
2019/04/19 00:24 EDT    1.71   2.12   12  192   21  69.6  60.3 1013.2 12.8  1.010 -99.9 -99.99 -9.99
2019/04/19 00:30 EDT    1.64   2.04   13  189   18  69.6  60.1 1013.2 12.8  1.010 -99.9 -99.99 -9.99
2019/04/19 00:36 EDT    1.56   1.97   13  190   20  69.6  60.3 1013.1 12.8  1.010 -99.9 -99.99 -9.99
2019/04/19 00:42 EDT    1.48   1.88   10  193   16  69.3  60.1 1013.1 12.8  1.010 -99.9 -99.99 -9.99
2019/04/19 00:48 EDT    1.41   1.80   13  188   18  69.3  60.3 1013.0 12.8  1.010 -99.9 -99.99 -9.99
2019/04/19 00:54 EDT    1.33   1.71   13  189   17  69.1  60.4 1012.9 12.8  1.010 -99.9 -99.99 -9.99
2019/04/19 01:00 EDT    1.25   1.62   11  183   17  68.9  60.4 1012.9 12.7  1.010 -99.9 -99.99 -9.99
2019/04/19 01:06 EDT    1.17   1.55   11  193   17  69.3  60.4 1012.8 12.8  1.010 -99.9 -99.99 -9.99
2019/04/19 01:12 EDT    1.10   1.47   11  194   17  68.9  60.4 1012.9 12.7  1.010 -99.9 -99.99 -9.99
2019/04/19 01:18 EDT    1.02   1.40   10  198   18  68.9  59.5 1012.8 13.1  1.010 -99.9 -99.99 -9.99
2019/04/19 01:24 EDT    0.95   1.36   10  190   18  68.9  59.7 1012.8 13.0  1.010 -99.9 -99.99 -9.99
2019/04/19 01:30 EDT    0.87   1.28   10  190   15  68.5  59.7 1012.8 12.9  1.010 -99.9 -99.99 -9.99
2019/04/19 01:36 EDT    0.80   1.21   15  189   20  68.7  59.7 1012.6 12.9  1.010 -99.9 -99.99 -9.99
2019/04/19 01:42 EDT    0.73   1.15   11  188   17  68.5  59.7 1012.6 12.9  1.010 -99.9 -99.99 -9.99
2019/04/19 01:48 EDT    0.66   1.09   11  188   17  68.5  59.5 1012.6 13.0  1.010 -99.9 -99.99 -9.99
2019/04/19 01:54 EDT    0.59   1.03    9  194   15  68.2  59.4 1012.5 13.1  1.010 -99.9 -99.99 -9.99
2019/04/19 02:00 EDT    0.52   0.97   11  191   16  68.4  59.9 1012.4 12.9  1.010 -99.9 -99.99 -9.99
2019/04/19 02:06 EDT    0.46   0.91   10  195   14  68.4  59.9 1012.3 12.9  1.010 -99.9 -99.99 -9.99
2019/04/19 02:12 EDT    0.40   0.85   11  188   16  68.4  60.1 1012.2 12.8  1.010 -99.9 -99.99 -9.99
2019/04/19 02:18 EDT    0.34   0.79    9  190   17  68.4  59.5 1012.2 13.0  1.010 -99.9 -99.99 -9.99
2019/04/19 02:24 EDT    0.28   0.74   11  193   14  68.2  59.7 1012.2 12.9  1.010 -99.9 -99.99 -9.99
2019/04/19 02:30 EDT    0.23   0.69   10  201   14  68.2  59.7 1012.1 12.9  1.010 -99.9 -99.99 -9.99
2019/04/19 02:36 EDT    0.18   0.64    9  195   16  68.2  59.5 1012.0 12.9  1.010 -99.9 -99.99 -9.99
2019/04/19 02:42 EDT    0.13   0.59   12  193   16  68.4  59.5 1011.9 12.9  1.010 -99.9 -99.99 -9.99
2019/04/19 02:48 EDT    0.08   0.55    9  192   16  68.2  59.5 1011.9 12.9  1.010 -99.9 -99.99 -9.99
2019/04/19 02:54 EDT    0.04   0.52    9  190   14  68.0  59.5 1011.9 12.9  1.010 -99.9 -99.99 -9.99
2019/04/19 03:00 EDT    0.00   0.49    9  194   13  68.0  59.5 1011.8 12.9  1.010 -99.9 -99.99 -9.99
2019/04/19 03:06 EDT   -0.04   0.45    9  195   14  68.2  59.5 1011.8 12.9  1.010 -99.9 -99.99 -9.99
2019/04/19 03:12 EDT   -0.07   0.43    9  186   12  68.0  59.7 1011.7 12.9  1.010 -99.9 -99.99 -9.99
2019/04/19 03:18 EDT   -0.10   0.40   10  192   14  68.2  59.7 1011.6 12.8  1.010 -99.9 -99.99 -9.99
2019/04/19 03:24 EDT   -0.12   0.38   11  186   14  68.0  59.7 1011.5 12.9  1.010 -99.9 -99.99 -9.99
2019/04/19 03:30 EDT   -0.14   0.36    9  184   13  68.0  59.7 1011.5 12.9  1.010 -99.9 -99.99 -9.99
2019/04/19 03:36 EDT   -0.16   0.34   10  189   15  68.0  59.7 1011.5 12.9  1.010 -99.9 -99.99 -9.99
2019/04/19 03:42 EDT   -0.18   0.33    9  183   15  68.0  59.7 1011.4 12.9  1.010 -99.9 -99.99 -9.99
2019/04/19 03:48 EDT   -0.19   0.31   10  189   14  67.8  59.7 1011.3 12.9  1.010 -99.9 -99.99 -9.99
2019/04/19 03:54 EDT   -0.20   0.31    7  182   11  67.5  59.7 1011.3 12.9  1.010 -99.9 -99.99 -9.99
2019/04/19 04:00 EDT   -0.20   0.31    9  182   14  67.6  59.5 1011.2 12.9  1.010 -99.9 -99.99 -9.99
2019/04/19 04:06 EDT   -0.20   0.32    8  177   11  67.6  59.7 1011.2 12.9  1.010 -99.9 -99.99 -9.99
2019/04/19 04:12 EDT   -0.20   0.32    9  182   13  67.6  60.1 1011.1 12.7  1.010 -99.9 -99.99 -9.99
2019/04/19 04:18 EDT   -0.19   0.33    8  180   10  67.6  60.3 1011.1 12.6  1.010 -99.9 -99.99 -9.99
2019/04/19 04:24 EDT   -0.18   0.35    8  175   10  67.6  60.3 1011.0 12.6  1.010 -99.9 -99.99 -9.99
2019/04/19 04:30 EDT   -0.16   0.37    6  182   12  67.5  60.3 1011.0 12.6  1.010 -99.9 -99.99 -9.99
2019/04/19 04:36 EDT   -0.15   0.38    7  182   11  67.5  60.3 1011.0 12.6  1.010 -99.9 -99.99 -9.99
2019/04/19 04:42 EDT   -0.12   0.40    6  187   10  67.5  60.1 1010.9 12.7  1.010 -99.9 -99.99 -9.99
2019/04/19 04:48 EDT   -0.10   0.49    8  179   11  67.8  60.1 1010.7 12.7  1.010 -99.9 -99.99 -9.99
2019/04/19 04:54 EDT   -0.07   0.45    9  181   13  68.0  60.1 1010.7 12.7  1.010 -99.9 -99.99 -9.99
2019/04/19 05:00 EDT   -0.04   0.48   10  188   15  68.2  60.3 1010.6 12.7  1.010 -99.9 -99.99 -9.99
2019/04/19 05:06 EDT   -0.00   0.51   10  186   16  68.2  60.3 1010.5 12.6  1.010 -99.9 -99.99 -9.99
2019/04/19 05:12 EDT    0.04   0.55   12  189   18  68.5  60.3 1010.3 12.6  1.010 -99.9 -99.99 -9.99
2019/04/19 05:18 EDT    0.08   0.60   13  186   19  68.5  60.4 1010.2 12.5  1.009 -99.9 -99.99 -9.99
2019/04/19 05:24 EDT    0.13   0.65   10  182   17  68.4  60.4 1010.1 12.5  1.009 -99.9 -99.99 -9.99
2019/04/19 05:30 EDT    0.18   0.71   11  187   15  68.4  60.4 1010.1 12.5  1.009 -99.9 -99.99 -9.99
2019/04/19 05:36 EDT    0.23   0.76   11  189   16  68.5  60.4 1010.1 12.5  1.009 -99.9 -99.99 -9.99
2019/04/19 05:42 EDT    0.28   0.80   13  188   17  68.7  60.4 1010.0 12.5  1.009 -99.9 -99.99 -9.99
2019/04/19 05:48 EDT    0.34   0.86   12  184   16  68.5  60.3 1009.8 12.6  1.010 -99.9 -99.99 -9.99
2019/04/19 05:54 EDT    0.40   0.93   10  187   16  68.5  60.3 1009.8 12.6  1.010 -99.9 -99.99 -9.99
2019/04/19 06:00 EDT    0.47   0.99   13  186   17  68.7  60.3 1009.8 12.7  1.010 -99.9 -99.99 -9.99
2019/04/19 06:06 EDT    0.53   1.05   11  187   16  68.7  60.3 1009.7 12.7  1.010 -99.9 -99.99 -9.99
2019/04/19 06:12 EDT    0.60   1.11   12  184   16  68.7  60.3 1009.6 12.7  1.010 -99.9 -99.99 -9.99
2019/04/19 06:18 EDT    0.67   1.18   11  188   16  68.5  60.3 1009.5 12.8  1.010 -99.9 -99.99 -9.99
2019/04/19 06:24 EDT    0.75   1.25   13  182   17  68.9  60.1 1009.4 12.8  1.010 -99.9 -99.99 -9.99
2019/04/19 06:30 EDT    0.82   1.33   13  176   20  68.7  60.3 1009.5 12.8  1.010 -99.9 -99.99 -9.99
2019/04/19 06:36 EDT    0.90   1.40   12  182   17  68.7  60.1 1009.4 12.9  1.010 -99.9 -99.99 -9.99
2019/04/19 06:42 EDT    0.98   1.49   11  185   16  68.9  60.1 1009.6 12.9  1.010 -99.9 -99.99 -9.99
2019/04/19 06:48 EDT    1.06   1.57   12  187   17  69.1  59.9 1009.7 12.9  1.010 -99.9 -99.99 -9.99
2019/04/19 06:54 EDT    1.14   1.64   11  191   16  68.7  59.7 1010.0 13.0  1.010 -99.9 -99.99 -9.99
2019/04/19 07:00 EDT    1.22   1.72   11  195   17  67.8  59.7 1010.1 13.0  1.010 -99.9 -99.99 -9.99
2019/04/19 07:06 EDT    1.30   1.80    8  201   16  67.1  59.7 1010.3 13.0  1.010 -99.9 -99.99 -9.99
2019/04/19 07:12 EDT    1.38   1.88    7  209   13  66.6  59.9 1010.4 12.9  1.010 -99.9 -99.99 -9.99
2019/04/19 07:18 EDT    1.46   1.97    5  211   10  66.2  59.7 1010.4 12.9  1.010 -99.9 -99.99 -9.99
2019/04/19 07:24 EDT    1.54   2.04    5  198    9  66.0  59.9 1010.5 12.9  1.010 -99.9 -99.99 -9.99
2019/04/19 07:30 EDT    1.62   2.11    5  200   10  66.0  59.9 1010.6 12.9  1.010 -99.9 -99.99 -9.99
2019/04/19 07:36 EDT    1.70   2.17    5  224    9  65.8  59.9 1010.7 12.9  1.010 -99.9 -99.99 -9.99
2019/04/19 07:42 EDT    1.78   2.24    7  176    9  65.8  59.9 1010.5 12.9  1.010 -99.9 -99.99 -9.99
2019/04/19 07:48 EDT    1.85   2.32   12  173   15  66.2  59.9 1010.5 12.9  1.010 -99.9 -99.99 -9.99
2019/04/19 07:54 EDT    1.92   2.40    9  173   14  66.2  59.9 1010.6 12.9  1.010 -99.9 -99.99 -9.99
2019/04/19 08:00 EDT    2.00   2.48   11  178   16  66.7  59.9 1010.7 12.9  1.010 -99.9 -99.99 -9.99
2019/04/19 08:06 EDT    2.07   2.55   10  180   13  66.6  59.7 1010.7 12.9  1.010 -99.9 -99.99 -9.99
2019/04/19 08:12 EDT    2.13   2.62    9  173   14  66.6  59.7 1010.6 12.9  1.010 -99.9 -99.99 -9.99
2019/04/19 08:18 EDT    2.20   2.68    9  170   14  66.7  59.7 1010.6 12.9  1.010 -99.9 -99.99 -9.99
2019/04/19 08:24 EDT    2.26   2.75   12  170   15  67.1  59.7 1010.5 12.9  1.010 -99.9 -99.99 -9.99
2019/04/19 08:30 EDT    2.32   2.81    9  172   13  67.1  59.9 1010.6 12.8  1.010 -99.9 -99.99 -9.99
2019/04/19 08:36 EDT    2.37   2.87    9  180   12  67.5  59.9 1010.6 12.8  1.010 -99.9 -99.99 -9.99
2019/04/19 08:42 EDT    2.42   2.96   11  174   15  67.8  59.9 1010.6 12.9  1.010 -99.9 -99.99 -9.99
2019/04/19 08:48 EDT    2.47   3.01   10  179   14  67.6  59.9 1010.7 12.8  1.010 -99.9 -99.99 -9.99
2019/04/19 08:54 EDT    2.51   3.05    8  179   12  67.8  60.1 1010.7 12.8  1.010 -99.9 -99.99 -9.99
2019/04/19 09:00 EDT    2.55   3.09   12  178   14  68.0  59.9 1010.7 12.9  1.010 -99.9 -99.99 -9.99
2019/04/19 09:06 EDT    2.59   3.14    8  179   14  67.8  59.9 1010.6 12.9  1.010 -99.9 -99.99 -9.99
2019/04/19 09:12 EDT    2.62   3.17   11  172   14  68.0  59.9 1010.6 12.9  1.010 -99.9 -99.99 -9.99
2019/04/19 09:18 EDT    2.65   3.20   10  180   13  68.4  59.9 1010.5 13.0  1.010 -99.9 -99.99 -9.99
2019/04/19 09:24 EDT    2.68   3.23    8  178   12  68.4  59.9 1010.5 12.9  1.010 -99.9 -99.99 -9.99
2019/04/19 09:30 EDT    2.70   3.26    9  188   14  68.4  59.9 1010.4 12.9  1.010 -99.9 -99.99 -9.99
2019/04/19 09:36 EDT    2.71   3.29    9  172   11  68.2  59.9 1010.3 12.9  1.010 -99.9 -99.99 -9.99
2019/04/19 09:42 EDT    2.72   3.31   10  173   14  68.5  59.9 1010.3 12.9  1.010 -99.9 -99.99 -9.99
2019/04/19 09:48 EDT    2.73   3.32   10  172   14  68.2  59.9 1010.2 13.0  1.010 -99.9 -99.99 -9.99
2019/04/19 09:54 EDT    2.74   3.33    8  176   12  68.5  60.1 1010.1 13.0  1.010 -99.9 -99.99 -9.99
2019/04/19 10:00 EDT    2.74   3.33    9  178   13  68.7  60.1 1009.9 13.0  1.010 -99.9 -99.99 -9.99
2019/04/19 10:06 EDT    2.73   3.33    9  168   12  69.4  60.1 1009.9 13.0  1.010 -99.9 -99.99 -9.99
2019/04/19 10:12 EDT    2.72   3.32    9  182   16  69.8  60.1 1010.0 13.0  1.010 -99.9 -99.99 -9.99
2019/04/19 10:18 EDT    2.71   3.31   11  191   20  70.3  60.1 1009.9 13.0  1.010 -99.9 -99.99 -9.99
2019/04/19 10:24 EDT    2.70   3.29   11  189   19  70.5  60.1 1009.9 13.0  1.010 -99.9 -99.99 -9.99
2019/04/19 10:30 EDT    2.68   3.27   12  183   15  70.9  60.1 1009.8 13.0  1.010 -99.9 -99.99 -9.99
2019/04/19 10:36 EDT    2.66   3.31    9  190   13  70.9  60.1 1009.8 13.0  1.010 -99.9 -99.99 -9.99
2019/04/19 10:42 EDT    2.63   3.23    9  191   13  70.7  60.1 1009.8 13.0  1.010 -99.9 -99.99 -9.99
2019/04/19 10:48 EDT    2.61   3.21   10  175   14  71.1  60.1 1009.8 13.0  1.010 -99.9 -99.99 -9.99
2019/04/19 10:54 EDT    2.57   3.18    9  177   16  71.2  59.9 1009.7 13.1  1.010 -99.9 -99.99 -9.99
2019/04/19 11:00 EDT    2.54   3.15   11  183   14  71.6  59.9 1009.7 13.1  1.010 -99.9 -99.99 -9.99
2019/04/19 11:06 EDT    2.50   3.12   11  180   16  72.1  59.9 1009.7 13.1  1.010 -99.9 -99.99 -9.99
2019/04/19 11:12 EDT    2.46   3.08   11  178   15  72.5  60.1 1009.7 13.1  1.010 -99.9 -99.99 -9.99
2019/04/19 11:18 EDT    2.42   3.04   12  183   16  72.7  60.1 1009.7 13.1  1.010 -99.9 -99.99 -9.99
2019/04/19 11:24 EDT    2.37   2.99   12  186   18  72.7  60.1 1009.6 13.1  1.010 -99.9 -99.99 -9.99
2019/04/19 11:30 EDT    2.33   2.94   11  181   15  73.0  60.1 1009.5 13.1  1.010 -99.9 -99.99 -9.99
2019/04/19 11:36 EDT    2.27   2.88   11  175   20  73.0  60.4 1009.3 13.0  1.010 -99.9 -99.99 -9.99
2019/04/19 11:42 EDT    2.22   2.83   12  176   16  73.2  60.6 1009.2 13.0  1.010 -99.9 -99.99 -9.99
2019/04/19 11:48 EDT    2.17   2.76   11  174   17  73.9  60.8 1009.1 13.0  1.010 -99.9 -99.99 -9.99
2019/04/19 11:54 EDT    2.11   2.70   11  177   18  74.3  60.8 1009.0 13.0  1.010 -99.9 -99.99 -9.99
2019/04/19 12:00 EDT    2.05   2.64   12  172   17  74.1  60.8 1008.8 13.0  1.010 -99.9 -99.99 -9.99
2019/04/19 12:06 EDT    1.99   2.59   10  178   18  74.5  60.6 1008.7 13.0  1.010 -99.9 -99.99 -9.99
2019/04/19 12:12 EDT    1.93   2.53   15  188   19  75.0  60.3 1008.7 13.0  1.010 -99.9 -99.99 -9.99
2019/04/19 12:18 EDT    1.87   2.48   18  167   24  75.0  60.3 1008.4 13.0  1.010 -99.9 -99.99 -9.99
2019/04/19 12:24 EDT    1.80   2.43   13  178   18  74.8  59.7 1008.4 13.1  1.010 -99.9 -99.99 -9.99
2019/04/19 12:30 EDT    1.73   2.38   15  178   19  75.4  59.5 1008.2 13.1  1.010 -99.9 -99.99 -9.99
2019/04/19 12:36 EDT    1.67   2.32   15  179   22  75.4  59.7 1008.4 13.1  1.010 -99.9 -99.99 -9.99
2019/04/19 12:42 EDT    1.60   2.25    9  181   22  75.4  59.7 1008.5 13.1  1.010 -99.9 -99.99 -9.99
2019/04/19 12:48 EDT    1.53   2.19   14  179   19  75.7  59.7 1008.3 13.1  1.010 -99.9 -99.99 -9.99
2019/04/19 12:54 EDT    1.46   2.10   14  176   20  75.9  60.1 1008.1 13.0  1.010 -99.9 -99.99 -9.99
2019/04/19 13:00 EDT    1.39   2.02   14  179   19  75.9  60.1 1007.9 13.0  1.010 -99.9 -99.99 -9.99
2019/04/19 13:06 EDT    1.32   1.95   17  177   24  75.7  60.3 1007.8 13.0  1.010 -99.9 -99.99 -9.99
2019/04/19 13:12 EDT    1.25   1.87   13  185   21  75.7  60.1 1007.7 13.0  1.010 -99.9 -99.99 -9.99
2019/04/19 13:18 EDT    1.18   1.79   12  181   23  75.4  59.9 1007.7 13.0  1.010 -99.9 -99.99 -9.99
2019/04/19 13:24 EDT    1.11   1.72   13  185   21  75.7  60.4 1007.5 13.0  1.010 -99.9 -99.99 -9.99
2019/04/19 13:30 EDT    1.04   1.70   10  187   23  75.6  60.6 1007.3 12.9  1.010 -99.9 -99.99 -9.99
2019/04/19 13:36 EDT    0.97   1.58   14  176   19  75.7  60.8 1007.2 12.9  1.010 -99.9 -99.99 -9.99
2019/04/19 13:42 EDT    0.90   1.52   16  179   23  75.9  60.8 1006.9 12.9  1.010 -99.9 -99.99 -9.99
2019/04/19 13:48 EDT    0.83   1.45    9  180   23  75.6  60.6 1006.9 13.0  1.010 -99.9 -99.99 -9.99
2019/04/19 13:54 EDT    0.77   1.38   15  179   20  75.7  60.6 1006.8 12.9  1.010 -99.9 -99.99 -9.99
2019/04/19 14:00 EDT    0.70   1.31   16  178   22  75.7  60.1 1006.8 13.0  1.010 -99.9 -99.99 -9.99
2019/04/19 14:06 EDT    0.64   1.25   22  178   31  75.7  60.3 1006.6 13.0  1.010 -99.9 -99.99 -9.99
2019/04/19 14:12 EDT    0.58   1.18   19  170   25  75.6  60.3 1006.5 13.0  1.010 -99.9 -99.99 -9.99
2019/04/19 14:18 EDT    0.52   1.14   17  177   25  75.4  60.1 1006.7 13.0  1.010 -99.9 -99.99 -9.99
2019/04/19 14:24 EDT    0.46   1.10   15  174   24  74.8  59.9 1006.7 13.0  1.010 -99.9 -99.99 -9.99
2019/04/19 14:30 EDT    0.40   1.06   16  187   29  75.6  59.7 1006.6 13.1  1.010 -99.9 -99.99 -9.99
2019/04/19 14:36 EDT    0.35   1.01   15  184   26  75.0  59.9 1006.5 13.1  1.010 -99.9 -99.99 -9.99
2019/04/19 14:42 EDT    0.30   0.95   17  184   21  75.0  60.1 1006.5 13.0  1.010 -99.9 -99.99 -9.99
2019/04/19 14:48 EDT    0.25   0.89   14  185   23  74.5  59.7 1006.5 13.1  1.010 -99.9 -99.99 -9.99
2019/04/19 14:54 EDT    0.20   0.84   12  177   19  74.5  59.7 1006.4 13.1  1.010 -99.9 -99.99 -9.99
2019/04/19 15:00 EDT    0.16   0.79   11  175   16  74.5  59.7 1006.2 13.1  1.010 -99.9 -99.99 -9.99
2019/04/19 15:06 EDT    0.12   0.74    9  181   19  74.3  59.9 1005.9 13.1  1.010 -99.9 -99.99 -9.99
2019/04/19 15:12 EDT    0.08   0.71   14  170   22  74.1  59.9 1005.9 13.1  1.010 -99.9 -99.99 -9.99
2019/04/19 15:18 EDT    0.05   0.67   11  180   25  73.8  60.1 1006.2 13.1  1.010 -99.9 -99.99 -9.99
2019/04/19 15:24 EDT    0.02   0.64   14  175   18  73.8  60.1 1006.3 13.1  1.010 -99.9 -99.99 -9.99
2019/04/19 15:30 EDT   -0.01   0.62   11  175   17  72.9  60.1 1006.2 13.0  1.010 -99.9 -99.99 -9.99
2019/04/19 15:36 EDT   -0.03   0.61    8  171   15  72.5  59.9 1006.0 13.1  1.010 -99.9 -99.99 -9.99
2019/04/19 15:42 EDT   -0.05   0.60   10  175   15  73.0  60.4 1005.8 12.9  1.010 -99.9 -99.99 -9.99
2019/04/19 15:48 EDT   -0.07   0.60   11  180   16  73.4  60.1 1005.6 13.0  1.010 -99.9 -99.99 -9.99
2019/04/19 15:54 EDT   -0.08   0.60   12  178   16  74.1  60.1 1005.5 13.0  1.010 -99.9 -99.99 -9.99
2019/04/19 16:00 EDT   -0.09   0.61   16  175   20  74.5  60.1 1005.3 13.0  1.010 -99.9 -99.99 -9.99
2019/04/19 16:06 EDT   -0.10   0.60   14  178   20  74.5  60.1 1005.0 13.0  1.010 -99.9 -99.99 -9.99
2019/04/19 16:12 EDT   -0.10   0.60   17  175   20  74.7  60.1 1004.9 13.0  1.010 -99.9 -99.99 -9.99
2019/04/19 16:18 EDT   -0.10   0.60   16  175   21  74.8  60.1 1005.0 13.0  1.010 -99.9 -99.99 -9.99
2019/04/19 16:24 EDT   -0.09   0.60   18  183   25  75.0  60.3 1005.0 13.0  1.010 -99.9 -99.99 -9.99
2019/04/19 16:30 EDT   -0.09   0.61   14  177   24  74.3  60.3 1004.9 13.0  1.010 -99.9 -99.99 -9.99
2019/04/19 16:36 EDT   -0.07   0.61   13  179   20  73.8  60.3 1004.9 13.0  1.010 -99.9 -99.99 -9.99
2019/04/19 16:42 EDT   -0.06   0.58   11  181   19  72.9  60.3 1004.9 13.0  1.010 -99.9 -99.99 -9.99
2019/04/19 16:48 EDT   -0.04   0.57   14  173   19  72.3  60.3 1004.9 13.0  1.010 -99.9 -99.99 -9.99
2019/04/19 16:54 EDT   -0.02   0.57   12  170   16  71.2  60.3 1005.0 13.0  1.010 -99.9 -99.99 -9.99
2019/04/19 17:00 EDT    0.01   0.59   10  160   14  70.3  60.3 1004.8 13.0  1.010 -99.9 -99.99 -9.99
2019/04/19 17:06 EDT    0.04   0.63    7  168   12  70.3  60.3 1004.6 13.0  1.010 -99.9 -99.99 -9.99
2019/04/19 17:12 EDT    0.08   0.68    7  171   11  70.3  60.3 1004.8 13.0  1.010 -99.9 -99.99 -9.99
2019/04/19 17:18 EDT    0.11   0.72    7  168   11  70.3  60.3 1004.9 13.0  1.010 -99.9 -99.99 -9.99
2019/04/19 17:24 EDT    0.15   0.74    9  159   12  70.0  60.3 1004.8 13.0  1.010 -99.9 -99.99 -9.99
2019/04/19 17:30 EDT    0.20   0.73    7  158   11  69.6  60.3 1004.9 13.0  1.010 -99.9 -99.99 -9.99
2019/04/19 17:36 EDT    0.25   0.76    7  162    9  70.0  60.3 1004.8 13.0  1.010 -99.9 -99.99 -9.99
2019/04/19 17:42 EDT    0.30   0.81    8  169   10  70.3  60.4 1004.8 13.0  1.010 -99.9 -99.99 -9.99
2019/04/19 17:48 EDT    0.35   0.89    9  175   11  70.5  60.4 1004.7 13.0  1.010 -99.9 -99.99 -9.99
2019/04/19 17:54 EDT    0.41   0.95    9  173   13  70.9  60.6 1004.6 13.0  1.010 -99.9 -99.99 -9.99
2019/04/19 18:00 EDT    0.47   1.01    9  172   14  71.1  60.8 1004.5 13.0  1.010 -99.9 -99.99 -9.99
2019/04/19 18:06 EDT    0.53   1.08   10  162   12  71.1  60.8 1004.4 13.0  1.010 -99.9 -99.99 -9.99
2019/04/19 18:12 EDT    0.60   1.15    9  171   14  70.9  60.8 1004.4 13.0  1.010 -99.9 -99.99 -9.99
2019/04/19 18:18 EDT    0.67   1.24   11  166   15  71.4  60.6 1004.3 13.0  1.010 -99.9 -99.99 -9.99
2019/04/19 18:24 EDT    0.74   1.35   12  157   15  71.8  60.8 1004.1 12.9  1.010 -99.9 -99.99 -9.99
2019/04/19 18:30 EDT    0.81   1.44   15  165   20  72.5  60.6 1003.9 13.0  1.010 -99.9 -99.99 -9.99
2019/04/19 18:36 EDT    0.89   1.52   13  164   20  72.1  60.8 1003.8 13.0  1.010 -99.9 -99.99 -9.99
2019/04/19 18:42 EDT    0.96   1.61   12  170   17  72.3  60.8 1003.8 13.0  1.010 -99.9 -99.99 -9.99
2019/04/19 18:48 EDT    1.04   1.71   15  169   19  73.4  60.8 1003.7 13.0  1.010 -99.9 -99.99 -9.99
2019/04/19 18:54 EDT    1.12   1.81   14  172   19  73.0  60.8 1003.7 13.0  1.010 -99.9 -99.99 -9.99
2019/04/19 19:00 EDT    1.20   1.87   15  170   19  73.4  61.0 1003.7 13.0  1.010 -99.9 -99.99 -9.99
2019/04/19 19:06 EDT    1.29   1.91   16  172   23  73.8  60.8 1003.6 13.0  1.010 -99.9 -99.99 -9.99
2019/04/19 19:12 EDT    1.37   1.97   14  174   26  73.8  60.3 1003.6 13.1  1.010 -99.9 -99.99 -9.99
2019/04/19 19:18 EDT    1.46   2.06   16  174   22  74.3  60.4 1003.4 13.0  1.010 -99.9 -99.99 -9.99
2019/04/19 19:24 EDT    1.54   2.14   14  173   25  74.3  60.4 1003.4 13.0  1.010 -99.9 -99.99 -9.99
2019/04/19 19:30 EDT    1.63   2.23   16  171   23  73.9  60.4 1003.0 13.0  1.010 -99.9 -99.99 -9.99
2019/04/19 19:36 EDT    1.71   2.31   17  167   23  73.9  60.3 1002.8 13.0  1.010 -99.9 -99.99 -9.99
2019/04/19 19:42 EDT    1.79   2.37   22  163   28  73.9  60.3 1002.7 13.0  1.010 -99.9 -99.99 -9.99
2019/04/19 19:48 EDT    1.88   2.43   17  162   23  73.6  60.3 1002.5 13.0  1.010 -99.9 -99.99 -9.99
2019/04/19 19:54 EDT    1.96   2.53   18  167   25  73.8  60.4 1002.5 12.9  1.010 -99.9 -99.99 -9.99
2019/04/19 20:00 EDT    2.04   2.62   17  167   26  73.8  60.4 1002.6 12.9  1.010 -99.9 -99.99 -9.99
2019/04/19 20:06 EDT    2.12   2.72   17  161   23  73.4  60.4 1002.2 12.9  1.010 -99.9 -99.99 -9.99
2019/04/19 20:12 EDT    2.20   2.82   19  175   25  73.0  60.4 1002.1 12.9  1.010 -99.9 -99.99 -9.99
2019/04/19 20:18 EDT    2.27   2.91   32  194   46  70.5  60.4 1003.3 12.9  1.010 -99.9 -99.99 -9.99
2019/04/19 20:24 EDT    2.35   3.00   23  210   35  69.1  60.4 1004.2 12.9  1.010 -99.9 -99.99 -9.99
2019/04/19 20:30 EDT    2.42   3.07   14  196   23  67.5  60.6 1004.8 12.9  1.010 -99.9 -99.99 -9.99
2019/04/19 20:36 EDT    2.49   3.15   18  199   22  66.4  60.4 1004.5 12.9  1.010 -99.9 -99.99 -9.99
2019/04/19 20:42 EDT    2.55   3.25   15  187   22  66.0  60.4 1005.3 12.9  1.010 -99.9 -99.99 -9.99
2019/04/19 20:48 EDT    2.62   3.27   16  182   21  65.3  60.4 1005.3 12.9  1.010 -99.9 -99.99 -9.99
2019/04/19 20:54 EDT    2.67   3.26   15  194   26  65.1  60.4 1005.7 12.9  1.010 -99.9 -99.99 -9.99
2019/04/19 21:00 EDT    2.73   3.27   13  197   25  64.9  60.6 1005.6 12.9  1.010 -99.9 -99.99 -9.99
2019/04/19 21:06 EDT    2.78   3.33   10  193   18  64.8  60.6 1005.7 12.9  1.010 -99.9 -99.99 -9.99
2019/04/19 21:12 EDT    2.83   3.29   10  195   20  64.8  60.6 1005.4 12.9  1.010 -99.9 -99.99 -9.99
2019/04/19 21:18 EDT    2.87   3.30    9  198   12  64.8  60.6 1005.3 12.9  1.010 -99.9 -99.99 -9.99
2019/04/19 21:24 EDT    2.91   3.32    9  199   14  64.9  60.6 1005.0 12.9  1.010 -99.9 -99.99 -9.99
2019/04/19 21:30 EDT    2.95   3.34   11  211   17  65.3  60.6 1004.7 12.9  1.010 -99.9 -99.99 -9.99
2019/04/19 21:36 EDT    2.98   3.36   11  217   16  65.7  60.6 1004.6 12.9  1.010 -99.9 -99.99 -9.99
2019/04/19 21:42 EDT    3.01   3.41   11  206   17  65.8  60.6 1004.7 12.9  1.010 -99.9 -99.99 -9.99
2019/04/19 21:48 EDT    3.03   3.47   11  194   15  66.0  60.4 1004.8 13.0  1.010 -99.9 -99.99 -9.99
2019/04/19 21:54 EDT    3.05   3.49    9  179   16  65.8  60.4 1004.6 13.0  1.010 -99.9 -99.99 -9.99
2019/04/19 22:00 EDT    3.07   3.51    7  184   14  65.8  60.3 1004.2 13.1  1.010 -99.9 -99.99 -9.99
2019/04/19 22:06 EDT    3.08   3.55    7  179   11  66.0  60.1 1004.1 13.1  1.010 -99.9 -99.99 -9.99
2019/04/19 22:12 EDT    3.09   3.59    8  191   10  66.2  59.9 1004.2 13.2  1.010 -99.9 -99.99 -9.99
2019/04/19 22:18 EDT    3.09   3.63    6  181   11  66.0  59.9 1004.3 13.2  1.010 -99.9 -99.99 -9.99
2019/04/19 22:24 EDT    3.09   3.65    7  179   11  66.2  60.1 1004.2 13.1  1.010 -99.9 -99.99 -9.99
2019/04/19 22:30 EDT    3.08   3.61    5  171    8  66.0  60.1 1003.9 13.1  1.010 -99.9 -99.99 -9.99
2019/04/19 22:36 EDT    3.07   3.58    6  146    9  65.7  59.9 1003.7 13.2  1.010 -99.9 -99.99 -9.99
2019/04/19 22:42 EDT    3.06   3.59    7  150    9  65.5  59.9 1003.7 13.2  1.010 -99.9 -99.99 -9.99
2019/04/19 22:48 EDT    3.04   3.60    8  145   10  65.5  59.7 1003.7 13.2  1.010 -99.9 -99.99 -9.99
2019/04/19 22:54 EDT    3.02   3.57    9  150   10  65.8  59.9 1003.7 13.2  1.010 -99.9 -99.99 -9.99
2019/04/19 23:00 EDT    3.00   3.54    9  153   12  66.2  59.9 1003.5 13.2  1.010 -99.9 -99.99 -9.99
2019/04/19 23:06 EDT    2.97   3.52   11  137   13  66.7  59.9 1003.1 13.2  1.010 -99.9 -99.99 -9.99
2019/04/19 23:12 EDT    2.94   3.52   12  140   14  67.1  60.1 1002.8 13.2  1.010 -99.9 -99.99 -9.99
2019/04/19 23:18 EDT    2.90   3.49   13  149   17  67.3  60.1 1002.7 13.2  1.010 -99.9 -99.99 -9.99
2019/04/19 23:24 EDT    2.86   3.44   12  158   17  67.5  60.3 1002.6 13.1  1.010 -99.9 -99.99 -9.99
2019/04/19 23:30 EDT    2.82   3.39   11  161   17  68.0  60.3 1002.7 13.1  1.010 -99.9 -99.99 -9.99
2019/04/19 23:36 EDT    2.78   3.40   15  174   19  68.5  60.3 1002.9 13.1  1.010 -99.9 -99.99 -9.99
2019/04/19 23:42 EDT    2.73   3.33   12  199   17  68.5  60.1 1003.1 13.2  1.010 -99.9 -99.99 -9.99
2019/04/19 23:48 EDT    2.68   3.25   14  180   20  68.9  59.9 1002.9 13.2  1.010 -99.9 -99.99 -9.99
2019/04/19 23:54 EDT    2.63   3.16   20  181   28  69.1  60.4 1003.1 13.1  1.010 -99.9 -99.99 -9.99
2019/04/20 00:00 EDT    2.57   3.09   13  183   19  68.4  60.6 1003.7 13.0  1.010 -99.9 -99.99 -9.99
2019/04/20 00:06 EDT    2.52   3.05   16  180   20  68.5  60.6 1003.7 13.0  1.010 -99.9 -99.99 -9.99
2019/04/20 00:12 EDT    2.46   3.01   14  180   19  68.4  60.6 1003.7 13.0  1.010 -99.9 -99.99 -9.99
2019/04/20 00:18 EDT    2.39   2.97   12  175   19  68.2  60.6 1003.8 13.0  1.010 -99.9 -99.99 -9.99
2019/04/20 00:24 EDT    2.33   2.92   11  172   17  68.0  60.6 1003.8 13.0  1.010 -99.9 -99.99 -9.99
2019/04/20 00:30 EDT    2.26   2.89   12  166   19  68.0  60.6 1003.7 13.0  1.010 -99.9 -99.99 -9.99
2019/04/20 00:36 EDT    2.20   2.88   10  171   17  67.6  60.3 1003.7 13.1  1.010 -99.9 -99.99 -9.99
2019/04/20 00:42 EDT    2.13   2.81   11  175   21  67.8  59.9 1003.6 13.2  1.010 -99.9 -99.99 -9.99
2019/04/20 00:48 EDT    2.06   2.74   12  172   17  67.5  60.1 1003.6 13.2  1.010 -99.9 -99.99 -9.99
2019/04/20 00:54 EDT    1.98   2.67   15  174   18  67.8  60.1 1003.6 13.2  1.010 -99.9 -99.99 -9.99
2019/04/20 01:00 EDT    1.91   2.61   12  171   17  67.5  60.3 1003.6 13.1  1.010 -99.9 -99.99 -9.99
2019/04/20 01:06 EDT    1.84   2.55   10  178   15  67.5  60.1 1003.7 13.2  1.010 -99.9 -99.99 -9.99
2019/04/20 01:12 EDT    1.76   2.49   10  180   15  67.5  60.3 1003.6 13.1  1.010 -99.9 -99.99 -9.99
2019/04/20 01:18 EDT    1.68   2.43   10  173   12  67.5  60.3 1003.8 13.1  1.010 -99.9 -99.99 -9.99
2019/04/20 01:24 EDT    1.61   2.38   10  171   16  67.5  60.6 1003.7 13.0  1.010 -99.9 -99.99 -9.99
2019/04/20 01:30 EDT    1.53   2.33    9  173   13  67.1  60.6 1003.7 13.0  1.010 -99.9 -99.99 -9.99
2019/04/20 01:36 EDT    1.45   2.28   11  177   15  67.6  60.6 1003.5 13.0  1.010 -99.9 -99.99 -9.99
2019/04/20 01:42 EDT    1.37   2.23    9  170   14  67.5  60.6 1003.4 13.0  1.010 -99.9 -99.99 -9.99
2019/04/20 01:48 EDT    1.30   2.18   10  171   14  67.6  60.6 1003.4 13.0  1.010 -99.9 -99.99 -9.99
2019/04/20 01:54 EDT    1.22   2.12   10  172   17  67.5  60.8 1003.4 13.0  1.010 -99.9 -99.99 -9.99
2019/04/20 02:00 EDT    1.14   2.05   11  166   18  67.6  60.8 1003.3 13.0  1.010 -99.9 -99.99 -9.99
2019/04/20 02:06 EDT    1.07   1.98   11  165   15  67.6  60.8 1003.3 13.0  1.010 -99.9 -99.99 -9.99
2019/04/20 02:12 EDT    0.99   1.90    8  169   16  67.3  60.8 1003.1 13.0  1.010 -99.9 -99.99 -9.99
2019/04/20 02:18 EDT    0.92   1.81    8  171   12  67.3  60.8 1002.9 13.0  1.010 -99.9 -99.99 -9.99
2019/04/20 02:24 EDT    0.85   1.73   11  179   14  67.6  60.8 1002.9 13.0  1.010 -99.9 -99.99 -9.99
2019/04/20 02:30 EDT    0.77   1.65    9  179   12  67.6  60.8 1002.8 13.0  1.010 -99.9 -99.99 -9.99
2019/04/20 02:36 EDT    0.70   1.57    7  173   11  67.6  60.8 1002.4 13.0  1.010 -99.9 -99.99 -9.99
2019/04/20 02:42 EDT    0.64   1.48    8  167   12  67.8  60.4 1002.3 13.1  1.010 -99.9 -99.99 -9.99
2019/04/20 02:48 EDT    0.57   1.40    8  174   13  68.0  60.4 1002.3 13.1  1.010 -99.9 -99.99 -9.99
2019/04/20 02:54 EDT    0.50   1.34    8  161   11  68.0  60.6 1002.3 13.0  1.010 -99.9 -99.99 -9.99
2019/04/20 03:00 EDT    0.44   1.28    9  173   13  68.0  60.6 1002.5 13.0  1.010 -99.9 -99.99 -9.99
2019/04/20 03:06 EDT    0.38   1.23    8  165   11  67.8  60.4 1002.1 13.1  1.010 -99.9 -99.99 -9.99
2019/04/20 03:12 EDT    0.32   1.18    6  168    9  67.8  60.1 1001.9 13.1  1.010 -99.9 -99.99 -9.99
2019/04/20 03:18 EDT    0.27   1.13    7  163   11  67.6  60.3 1001.8 13.1  1.010 -99.9 -99.99 -9.99
2019/04/20 03:24 EDT    0.22   1.08   10  160   13  67.8  60.3 1001.8 13.1  1.010 -99.9 -99.99 -9.99
2019/04/20 03:30 EDT    0.17   1.03    8  163   12  67.8  60.3 1001.6 13.1  1.010 -99.9 -99.99 -9.99
2019/04/20 03:36 EDT    0.12   0.98   11  164   18  68.4  60.3 1001.5 13.1  1.010 -99.9 -99.99 -9.99
2019/04/20 03:42 EDT    0.08   0.96   11  151   14  68.2  60.3 1001.2 13.1  1.010 -99.9 -99.99 -9.99
2019/04/20 03:48 EDT    0.04   0.93   10  148   15  68.0  60.3 1001.1 13.0  1.010 -99.9 -99.99 -9.99
2019/04/20 03:54 EDT    0.00   0.88   13  154   16  67.8  60.1 1001.1 13.0  1.010 -99.9 -99.99 -9.99
2019/04/20 04:00 EDT   -0.03   0.84   12  153   16  68.0  60.3 1001.0 13.0  1.010 -99.9 -99.99 -9.99
2019/04/20 04:06 EDT   -0.06   0.78   11  163   16  68.0  60.1 1001.2 13.0  1.010 -99.9 -99.99 -9.99
2019/04/20 04:12 EDT   -0.09   0.73   11  165   14  67.8  60.1 1001.2 13.0  1.010 -99.9 -99.99 -9.99
2019/04/20 04:18 EDT   -0.11   0.67   10  164   15  68.0  60.3 1001.1 12.9  1.010 -99.9 -99.99 -9.99
2019/04/20 04:24 EDT   -0.13   0.63    9  157   13  68.0  60.3 1000.9 12.9  1.010 -99.9 -99.99 -9.99
2019/04/20 04:30 EDT   -0.15   0.60    9  171   12  68.4  60.4 1001.0 12.9  1.010 -99.9 -99.99 -9.99
2019/04/20 04:36 EDT   -0.16   0.57    5  202   10  68.0  60.4 1001.2 12.9  1.010 -99.9 -99.99 -9.99
2019/04/20 04:42 EDT   -0.17   0.56    8  199   12  68.4  60.6 1000.9 12.8  1.010 -99.9 -99.99 -9.99
2019/04/20 04:48 EDT   -0.18   0.55   14  185   19  69.3  60.6 1000.9 12.8  1.010 -99.9 -99.99 -9.99
2019/04/20 04:54 EDT   -0.18   0.54   10  185   19  68.7  60.6 1001.1 12.8  1.010 -99.9 -99.99 -9.99
2019/04/20 05:00 EDT   -0.18   0.54    8  172   14  68.5  60.6 1000.9 12.8  1.010 -99.9 -99.99 -9.99
2019/04/20 05:06 EDT   -0.17   0.55    7  189   11  68.4  60.6 1001.0 12.8  1.010 -99.9 -99.99 -9.99
2019/04/20 05:12 EDT   -0.16   0.56    8  182   10  68.5  60.8 1001.1 12.8  1.010 -99.9 -99.99 -9.99
2019/04/20 05:18 EDT   -0.15   0.58   10  186   13  68.2  60.8 1001.6 12.8  1.010 -99.9 -99.99 -9.99
2019/04/20 05:24 EDT   -0.13   0.60   10  186   14  68.0  60.8 1001.3 12.8  1.010 -99.9 -99.99 -9.99
2019/04/20 05:30 EDT   -0.11   0.64   12  186   16  67.8  60.8 1001.2 12.7  1.010 -99.9 -99.99 -9.99
2019/04/20 05:36 EDT   -0.08   0.68   11  186   14  67.8  60.6 1001.0 12.8  1.010 -99.9 -99.99 -9.99
2019/04/20 05:42 EDT   -0.06   0.74    9  181   13  67.5  60.6 1001.2 12.8  1.010 -99.9 -99.99 -9.99
2019/04/20 05:48 EDT   -0.02   0.80    9  171   10  67.1  60.6 1001.4 12.8  1.010 -99.9 -99.99 -9.99
2019/04/20 05:54 EDT    0.01   0.86    9  177   12  67.1  60.6 1001.5 12.8  1.010 -99.9 -99.99 -9.99
2019/04/20 06:00 EDT    0.05   0.90    9  172   11  66.6  61.0 1001.6 12.7  1.010 -99.9 -99.99 -9.99
2019/04/20 06:06 EDT    0.09   0.94   10  179   13  66.7  61.0 1001.9 12.6  1.009 -99.9 -99.99 -9.99
2019/04/20 06:12 EDT    0.14   0.98    7  163   10  66.4  61.0 1001.6 12.6  1.009 -99.9 -99.99 -9.99
2019/04/20 06:18 EDT    0.18   1.03    5  172    9  66.0  61.0 1001.8 12.6  1.009 -99.9 -99.99 -9.99
2019/04/20 06:24 EDT    0.24   1.10    7  181   10  66.2  61.0 1001.8 12.6  1.009 -99.9 -99.99 -9.99
2019/04/20 06:30 EDT    0.29   1.16    6  185    8  66.4  61.0 1001.9 12.5  1.009 -99.9 -99.99 -9.99
2019/04/20 06:36 EDT    0.35   1.21    6  172    9  66.0  61.0 1002.1 12.5  1.009 -99.9 -99.99 -9.99
2019/04/20 06:42 EDT    0.41   1.27    7  170   10  66.0  61.0 1002.4 12.5  1.009 -99.9 -99.99 -9.99
2019/04/20 06:48 EDT    0.47   1.33    8  164   11  65.8  61.0 1002.6 12.5  1.009 -99.9 -99.99 -9.99
2019/04/20 06:54 EDT    0.53   1.39   10  179   13  66.0  61.0 1002.9 12.5  1.009 -99.9 -99.99 -9.99
2019/04/20 07:00 EDT    0.60   1.44   10  174   15  65.8  61.0 1003.0 12.6  1.009 -99.9 -99.99 -9.99
2019/04/20 07:06 EDT    0.67   1.49   10  167   14  65.5  61.0 1003.1 12.6  1.009 -99.9 -99.99 -9.99
2019/04/20 07:12 EDT    0.74   1.52   10  162   16  65.1  61.0 1003.0 12.7  1.010 -99.9 -99.99 -9.99
2019/04/20 07:18 EDT    0.81   1.56   10  173   13  65.1  61.0 1002.9 12.7  1.010 -99.9 -99.99 -9.99
2019/04/20 07:24 EDT    0.89   1.60    9  176   11  64.9  61.0 1003.0 12.7  1.010 -99.9 -99.99 -9.99
2019/04/20 07:30 EDT    0.96   1.65    7  182   11  64.8  61.0 1002.9 12.8  1.010 -99.9 -99.99 -9.99
2019/04/20 07:36 EDT    1.04   1.68    8  178   11  64.9  60.8 1002.9 12.8  1.010 -99.9 -99.99 -9.99
2019/04/20 07:42 EDT    1.11   1.72    5  180    9  64.9  61.0 1003.0 12.8  1.010 -99.9 -99.99 -9.99
2019/04/20 07:48 EDT    1.19   1.77    8  180   10  64.9  61.0 1003.1 12.8  1.010 -99.9 -99.99 -9.99
2019/04/20 07:54 EDT    1.27   1.81    8  180   11  64.8  61.0 1003.4 12.9  1.010 -99.9 -99.99 -9.99
2019/04/20 08:00 EDT    1.35   1.84    8  173   12  64.8  60.8 1003.4 12.9  1.010 -99.9 -99.99 -9.99
2019/04/20 08:06 EDT    1.42   1.88   11  184   14  64.9  60.6 1003.5 13.0  1.010 -99.9 -99.99 -9.99
2019/04/20 08:12 EDT    1.50   1.92    9  190   12  64.9  60.6 1003.6 12.9  1.010 -99.9 -99.99 -9.99
2019/04/20 08:18 EDT    1.58   1.97   11  177   13  64.9  60.6 1003.7 12.9  1.010 -99.9 -99.99 -9.99
2019/04/20 08:24 EDT    1.65   2.02    7  198   12  65.1  60.6 1003.8 12.9  1.010 -99.9 -99.99 -9.99
2019/04/20 08:30 EDT    1.73   2.09    9  190   13  65.1  60.6 1004.0 12.9  1.010 -99.9 -99.99 -9.99
2019/04/20 08:36 EDT    1.80   2.18    9  195   14  65.1  60.6 1004.1 12.9  1.010 -99.9 -99.99 -9.99
2019/04/20 08:42 EDT    1.87   2.25   12  212   19  65.5  60.6 1004.2 12.9  1.010 -99.9 -99.99 -9.99
2019/04/20 08:48 EDT    1.94   2.32   13  205   19  65.7  60.6 1004.1 12.9  1.010 -99.9 -99.99 -9.99
2019/04/20 08:54 EDT    2.01   2.39   12  239   18  65.5  60.6 1004.3 12.8  1.010 -99.9 -99.99 -9.99
2019/04/20 09:00 EDT    2.07   2.48   14  227   19  65.1  60.6 1004.5 12.8  1.010 -99.9 -99.99 -9.99
2019/04/20 09:06 EDT    2.13   2.59   13  223   17  64.8  60.6 1004.8 12.8  1.010 -99.9 -99.99 -9.99
2019/04/20 09:12 EDT    2.19   2.67   10  236   14  64.2  60.6 1004.8 12.8  1.010 -99.9 -99.99 -9.99
2019/04/20 09:18 EDT    2.25   2.75    7  227   11  63.9  60.6 1004.9 12.8  1.010 -99.9 -99.99 -9.99
2019/04/20 09:24 EDT    2.30   2.83   12  225   15  63.9  60.6 1004.9 12.8  1.010 -99.9 -99.99 -9.99
2019/04/20 09:30 EDT    2.35   2.87    8  226   14  63.5  60.6 1005.2 12.8  1.010 -99.9 -99.99 -9.99
2019/04/20 09:36 EDT    2.40   2.89    8  224   11  63.3  60.6 1005.2 12.8  1.010 -99.9 -99.99 -9.99
2019/04/20 09:42 EDT    2.44   2.91    6  224   10  63.3  60.6 1005.1 12.8  1.010 -99.9 -99.99 -9.99
2019/04/20 09:48 EDT    2.48   2.91    6  227    8  63.3  60.6 1005.3 12.8  1.010 -99.9 -99.99 -9.99
2019/04/20 09:54 EDT    2.52   2.92    9  216   15  63.5  60.6 1005.2 12.8  1.010 -99.9 -99.99 -9.99
2019/04/20 10:00 EDT    2.55   2.93   13  226   19  63.5  60.6 1005.3 12.8  1.010 -99.9 -99.99 -9.99
2019/04/20 10:06 EDT    2.58   2.93   10  211   19  63.3  60.6 1005.7 12.8  1.010 -99.9 -99.99 -9.99
2019/04/20 10:12 EDT    2.60   2.95   13  217   20  63.3  60.6 1005.8 12.8  1.010 -99.9 -99.99 -9.99
2019/04/20 10:18 EDT    2.62   3.02   13  207   19  63.5  60.6 1006.0 12.8  1.010 -99.9 -99.99 -9.99
2019/04/20 10:24 EDT    2.64   3.09   12  207   21  63.5  60.8 1006.0 12.8  1.010 -99.9 -99.99 -9.99
2019/04/20 10:30 EDT    2.65   3.14   15  209   20  63.0  60.8 1006.0 12.8  1.010 -99.9 -99.99 -9.99
2019/04/20 10:36 EDT    2.66   3.18   15  213   20  63.1  60.8 1006.2 12.8  1.010 -99.9 -99.99 -9.99
2019/04/20 10:42 EDT    2.67   3.21   17  193   23  63.1  60.8 1006.2 12.8  1.010 -99.9 -99.99 -9.99
2019/04/20 10:48 EDT    2.67   3.23   16  199   24  63.3  60.8 1006.1 12.8  1.010 -99.9 -99.99 -9.99
2019/04/20 10:54 EDT    2.66   3.23   14  204   20  63.5  60.8 1006.2 12.8  1.010 -99.9 -99.99 -9.99
2019/04/20 11:00 EDT    2.66   3.20   17  209   20  63.3  60.8 1006.3 12.8  1.010 -99.9 -99.99 -9.99
2019/04/20 11:06 EDT    2.65   3.17   12  217   23  63.3  60.8 1006.4 12.8  1.010 -99.9 -99.99 -9.99
2019/04/20 11:12 EDT    2.63   3.13   13  211   25  63.9  60.8 1006.3 12.8  1.010 -99.9 -99.99 -9.99
2019/04/20 11:18 EDT    2.62   3.10   17  217   23  63.7  60.8 1006.4 12.9  1.010 -99.9 -99.99 -9.99
2019/04/20 11:24 EDT    2.60   3.09   14  210   20  63.9  60.8 1006.4 12.9  1.010 -99.9 -99.99 -9.99
2019/04/20 11:30 EDT    2.57   3.09   16  236   23  63.9  60.6 1006.3 12.9  1.010 -99.9 -99.99 -9.99
2019/04/20 11:36 EDT    2.54   3.10   13  199   20  64.4  60.6 1006.3 13.0  1.010 -99.9 -99.99 -9.99
2019/04/20 11:42 EDT    2.51   3.12   11  189   16  64.6  60.6 1006.4 13.0  1.010 -99.9 -99.99 -9.99
2019/04/20 11:48 EDT    2.48   3.13   12  192   21  64.4  60.6 1006.5 13.0  1.010 -99.9 -99.99 -9.99
2019/04/20 11:54 EDT    2.44   3.11   16  210   19  64.8  60.6 1006.4 13.0  1.010 -99.9 -99.99 -9.99
2019/04/20 12:00 EDT    2.40   3.05   12  199   20  64.9  60.6 1006.5 13.0  1.010 -99.9 -99.99 -9.99
2019/04/20 12:06 EDT    2.36   2.99    8  199   16  65.5  60.6 1006.5 13.0  1.010 -99.9 -99.99 -9.99
2019/04/20 12:12 EDT    2.32   2.91   13  221   16  65.7  60.6 1006.5 13.0  1.010 -99.9 -99.99 -9.99
2019/04/20 12:18 EDT    2.27   2.84   14  202   22  66.4  60.6 1006.5 13.0  1.010 -99.9 -99.99 -9.99
2019/04/20 12:24 EDT    2.22   2.75   16  199   27  66.2  60.8 1006.6 13.0  1.010 -99.9 -99.99 -9.99
2019/04/20 12:30 EDT    2.17   2.67   19  223   26  66.0  61.3 1006.6 12.9  1.010 -99.9 -99.99 -9.99
2019/04/20 12:36 EDT    2.12   2.58   15  213   22  66.0  61.7 1006.6 12.8  1.010 -99.9 -99.99 -9.99
2019/04/20 12:42 EDT    2.06   2.52   14  211   20  66.0  61.7 1006.6 12.8  1.010 -99.9 -99.99 -9.99
2019/04/20 12:48 EDT    2.00   2.48   15  222   19  66.0  61.7 1006.6 12.8  1.010 -99.9 -99.99 -9.99
2019/04/20 12:54 EDT    1.94   2.45   14  205   19  66.4  61.7 1006.5 12.8  1.010 -99.9 -99.99 -9.99
2019/04/20 13:00 EDT    1.88   2.41   15  217   25  66.4  61.5 1006.4 12.9  1.010 -99.9 -99.99 -9.99
2019/04/20 13:06 EDT    1.82   2.34   18  226   22  66.0  61.3 1006.4 12.9  1.010 -99.9 -99.99 -9.99
2019/04/20 13:12 EDT    1.76   2.29   17  213   25  66.2  61.3 1006.4 12.9  1.010 -99.9 -99.99 -9.99
2019/04/20 13:18 EDT    1.69   2.25   14  183   22  66.9  61.3 1006.6 12.9  1.010 -99.9 -99.99 -9.99
2019/04/20 13:24 EDT    1.63   2.20   14  199   22  66.7  61.3 1006.5 12.9  1.010 -99.9 -99.99 -9.99
2019/04/20 13:30 EDT    1.56   2.13   14  215   20  66.6  61.3 1006.3 12.9  1.010 -99.9 -99.99 -9.99
2019/04/20 13:36 EDT    1.49   2.04   16  190   22  66.9  61.3 1006.4 12.9  1.010 -99.9 -99.99 -9.99
2019/04/20 13:42 EDT    1.43   1.96   15  212   20  66.6  61.3 1006.4 12.9  1.010 -99.9 -99.99 -9.99
2019/04/20 13:48 EDT    1.36   1.89   16  203   21  66.9  61.5 1006.3 12.9  1.010 -99.9 -99.99 -9.99
2019/04/20 13:54 EDT    1.29   1.81   14  187   21  67.1  61.3 1006.5 12.9  1.010 -99.9 -99.99 -9.99
2019/04/20 14:00 EDT    1.22   1.72   14  224   20  67.1  61.5 1006.4 12.9  1.010 -99.9 -99.99 -9.99
2019/04/20 14:06 EDT    1.15   1.64   16  214   21  66.9  61.5 1006.4 12.9  1.010 -99.9 -99.99 -9.99
2019/04/20 14:12 EDT    1.09   1.57   14  204   21  67.1  61.5 1006.4 12.9  1.010 -99.9 -99.99 -9.99
2019/04/20 14:18 EDT    1.02   1.50   15  186   24  67.1  61.5 1006.3 12.9  1.010 -99.9 -99.99 -9.99
2019/04/20 14:24 EDT    0.95   1.45   13  181   18  67.3  61.2 1006.2 13.0  1.010 -99.9 -99.99 -9.99
2019/04/20 14:30 EDT    0.89   1.39   15  188   22  66.9  61.3 1006.1 13.0  1.010 -99.9 -99.99 -9.99
2019/04/20 14:36 EDT    0.82   1.35   13  201   20  67.3  60.8 1006.1 13.0  1.010 -99.9 -99.99 -9.99
2019/04/20 14:42 EDT    0.76   1.31   13  209   18  67.8  61.2 1006.0 13.0  1.010 -99.9 -99.99 -9.99
2019/04/20 14:48 EDT    0.69   1.27   18  194   23  67.8  61.2 1005.9 13.0  1.010 -99.9 -99.99 -9.99
2019/04/20 14:54 EDT    0.63   1.21   16  202   24  67.6  61.2 1006.1 13.0  1.010 -99.9 -99.99 -9.99
2019/04/20 15:00 EDT    0.57   1.15   16  193   22  67.8  61.0 1006.1 13.0  1.010 -99.9 -99.99 -9.99
2019/04/20 15:06 EDT    0.52   1.10   16  219   21  68.0  61.2 1006.0 13.0  1.010 -99.9 -99.99 -9.99
2019/04/20 15:12 EDT    0.46   1.04   14  217   19  68.5  61.3 1006.1 13.0  1.010 -99.9 -99.99 -9.99
2019/04/20 15:18 EDT    0.41   0.97   11  224   17  68.7  61.3 1006.1 12.9  1.010 -99.9 -99.99 -9.99
2019/04/20 15:24 EDT    0.36   0.91   15  219   23  68.4  61.7 1005.9 12.8  1.010 -99.9 -99.99 -9.99
2019/04/20 15:30 EDT    0.31   0.85   15  196   21  68.5  61.5 1005.9 12.9  1.010 -99.9 -99.99 -9.99
2019/04/20 15:36 EDT    0.26   0.80   15  210   22  68.2  61.3 1005.8 12.9  1.010 -99.9 -99.99 -9.99
2019/04/20 15:42 EDT    0.22   0.75   17  190   21  68.5  61.0 1005.9 12.9  1.010 -99.9 -99.99 -9.99
2019/04/20 15:48 EDT    0.18   0.70   18  187   24  68.5  60.8 1005.9 12.9  1.010 -99.9 -99.99 -9.99
2019/04/20 15:54 EDT    0.14   0.66   16  188   21  68.7  61.2 1006.0 12.8  1.010 -99.9 -99.99 -9.99
2019/04/20 16:00 EDT    0.10   0.62   14  201   22  68.7  61.3 1006.0 12.9  1.010 -99.9 -99.99 -9.99
2019/04/20 16:06 EDT    0.07   0.60   15  208   22  68.5  61.3 1006.0 12.9  1.010 -99.9 -99.99 -9.99
2019/04/20 16:12 EDT    0.04   0.57   10  202   21  68.7  61.5 1006.0 12.8  1.010 -99.9 -99.99 -9.99
2019/04/20 16:18 EDT    0.02   0.55   12  206   18  68.9  61.3 1005.9 12.8  1.010 -99.9 -99.99 -9.99
2019/04/20 16:24 EDT   -0.00   0.53   15  195   21  68.7  61.5 1006.0 12.8  1.010 -99.9 -99.99 -9.99
2019/04/20 16:30 EDT   -0.02   0.52   14  200   18  68.5  61.5 1005.9 12.8  1.010 -99.9 -99.99 -9.99
2019/04/20 16:36 EDT   -0.04   0.50   13  225   22  68.4  61.5 1006.0 12.8  1.010 -99.9 -99.99 -9.99
2019/04/20 16:42 EDT   -0.05   0.56   16  209   20  68.7  61.5 1006.2 12.7  1.010 -99.9 -99.99 -9.99
2019/04/20 16:48 EDT   -0.05   0.46   15  188   19  68.7  61.3 1006.3 12.8  1.010 -99.9 -99.99 -9.99
2019/04/20 16:54 EDT   -0.06   0.45   10  199   17  68.7  61.3 1006.4 12.8  1.010 -99.9 -99.99 -9.99
2019/04/20 17:00 EDT   -0.06   0.44   12  209   22  68.5  61.3 1006.5 12.8  1.010 -99.9 -99.99 -9.99
2019/04/20 17:06 EDT   -0.05   0.44   11  215   18  68.5  61.3 1006.6 12.8  1.010 -99.9 -99.99 -9.99
2019/04/20 17:12 EDT   -0.05   0.43   12  213   19  68.7  61.3 1006.6 12.7  1.010 -99.9 -99.99 -9.99
2019/04/20 17:18 EDT   -0.04   0.45   14  208   21  68.4  61.3 1006.6 12.8  1.010 -99.9 -99.99 -9.99
2019/04/20 17:24 EDT   -0.02   0.47   10  207   17  68.2  61.5 1006.7 12.7  1.009 -99.9 -99.99 -9.99
2019/04/20 17:30 EDT   -0.00   0.50   11  214   15  68.2  61.5 1006.8 12.7  1.009 -99.9 -99.99 -9.99
2019/04/20 17:36 EDT    0.02   0.54   10  208   13  68.2  61.7 1006.9 12.6  1.009 -99.9 -99.99 -9.99
2019/04/20 17:42 EDT    0.04   0.56    8  205   13  68.2  61.7 1007.0 12.6  1.009 -99.9 -99.99 -9.99
2019/04/20 17:48 EDT    0.07   0.65   10  195   15  68.5  61.7 1007.1 12.6  1.009 -99.9 -99.99 -9.99
2019/04/20 17:54 EDT    0.11   0.62   10  213   15  68.4  61.7 1007.1 12.6  1.009 -99.9 -99.99 -9.99
2019/04/20 18:00 EDT    0.14   0.67   12  211   18  68.7  61.7 1007.2 12.6  1.009 -99.9 -99.99 -9.99
2019/04/20 18:06 EDT    0.18   0.72   12  210   15  68.7  61.9 1007.1 12.5  1.009 -99.9 -99.99 -9.99
2019/04/20 18:12 EDT    0.22   0.75   13  209   17  68.7  62.1 1007.2 12.5  1.009 -99.9 -99.99 -9.99
2019/04/20 18:18 EDT    0.27   0.78   10  235   17  68.7  62.1 1007.1 12.5  1.009 -99.9 -99.99 -9.99
2019/04/20 18:24 EDT    0.32   0.83   10  218   16  68.7  62.1 1007.0 12.5  1.009 -99.9 -99.99 -9.99
2019/04/20 18:30 EDT    0.37   0.87   12  208   17  68.9  62.2 1007.1 12.3  1.009 -99.9 -99.99 -9.99
2019/04/20 18:36 EDT    0.42   0.93   11  221   15  68.5  62.4 1007.1 12.3  1.009 -99.9 -99.99 -9.99
2019/04/20 18:42 EDT    0.48   0.98   11  208   17  68.4  62.2 1007.2 12.3  1.009 -99.9 -99.99 -9.99
2019/04/20 18:48 EDT    0.54   1.04   10  207   15  68.4  62.2 1007.2 12.3  1.009 -99.9 -99.99 -9.99
2019/04/20 18:54 EDT    0.60   1.10    8  212   13  68.5  62.2 1007.4 12.3  1.009 -99.9 -99.99 -9.99
2019/04/20 19:00 EDT    0.67   1.17    7  215   11  68.5  62.2 1007.5 12.3  1.009 -99.9 -99.99 -9.99
2019/04/20 19:06 EDT    0.73   1.24    8  210   11  68.5  62.1 1007.5 12.4  1.009 -99.9 -99.99 -9.99
2019/04/20 19:12 EDT    0.80   1.32    6  217   13  68.0  62.1 1007.5 12.4  1.009 -99.9 -99.99 -9.99
2019/04/20 19:18 EDT    0.88   1.39    7  222   10  67.8  62.1 1007.6 12.4  1.009 -99.9 -99.99 -9.99
2019/04/20 19:24 EDT    0.95   1.47    7  218   11  67.8  62.1 1007.6 12.4  1.009 -99.9 -99.99 -9.99
2019/04/20 19:30 EDT    1.02   1.54    6  208    8  67.8  62.1 1007.6 12.4  1.009 -99.9 -99.99 -9.99
2019/04/20 19:36 EDT    1.10   1.61    6  217   10  67.6  62.1 1007.6 12.4  1.009 -99.9 -99.99 -9.99
2019/04/20 19:42 EDT    1.18   1.68    8  219   11  67.3  61.9 1007.6 12.5  1.009 -99.9 -99.99 -9.99
2019/04/20 19:48 EDT    1.26   1.75    7  217    9  67.1  62.1 1007.6 12.5  1.009 -99.9 -99.99 -9.99
2019/04/20 19:54 EDT    1.33   1.82    6  218    7  66.7  61.9 1007.6 12.6  1.009 -99.9 -99.99 -9.99
2019/04/20 20:00 EDT    1.41   1.89    5  211    7  66.6  61.9 1007.6 12.7  1.009 -99.9 -99.99 -9.99
2019/04/20 20:06 EDT    1.50   1.96    8  212   11  66.4  61.9 1007.8 12.7  1.009 -99.9 -99.99 -9.99
2019/04/20 20:12 EDT    1.58   2.03    6  204   16  66.4  61.9 1008.0 12.7  1.009 -99.9 -99.99 -9.99
2019/04/20 20:18 EDT    1.66   2.11    9  207   13  66.6  61.9 1008.0 12.7  1.009 -99.9 -99.99 -9.99
2019/04/20 20:24 EDT    1.74   2.19    6  201   10  66.4  61.7 1008.0 12.8  1.010 -99.9 -99.99 -9.99
2019/04/20 20:30 EDT    1.82   2.27    7  211   13  66.2  61.7 1008.1 12.8  1.010 -99.9 -99.99 -9.99
2019/04/20 20:36 EDT    1.90   2.33    6  200   11  66.2  61.7 1008.2 12.8  1.010 -99.9 -99.99 -9.99
2019/04/20 20:42 EDT    1.97   2.39   11  209   14  66.2  61.7 1008.4 12.8  1.010 -99.9 -99.99 -9.99
2019/04/20 20:48 EDT    2.05   2.44    7  200   12  66.0  61.5 1008.5 12.8  1.010 -99.9 -99.99 -9.99
2019/04/20 20:54 EDT    2.13   2.51    6  197   12  65.8  61.5 1008.5 12.8  1.010 -99.9 -99.99 -9.99
2019/04/20 21:00 EDT    2.20   2.59    6  193    9  65.5  61.5 1008.4 12.7  1.010 -99.9 -99.99 -9.99
2019/04/20 21:06 EDT    2.27   2.66    7  209   11  65.5  61.5 1008.5 12.8  1.010 -99.9 -99.99 -9.99
2019/04/20 21:12 EDT    2.34   2.73    7  204    9  65.3  61.5 1008.6 12.8  1.010 -99.9 -99.99 -9.99
2019/04/20 21:18 EDT    2.41   2.80    7  207    9  65.3  61.5 1008.7 12.8  1.010 -99.9 -99.99 -9.99
2019/04/20 21:24 EDT    2.48   2.88    6  211    8  65.1  61.5 1008.7 12.7  1.010 -99.9 -99.99 -9.99
2019/04/20 21:30 EDT    2.54   2.96    8  212   12  65.1  61.5 1008.8 12.7  1.010 -99.9 -99.99 -9.99
2019/04/20 21:36 EDT    2.60   3.04    7  206   13  65.3  61.5 1008.9 12.7  1.010 -99.9 -99.99 -9.99
2019/04/20 21:42 EDT    2.65   3.10    7  198   10  65.1  61.5 1009.0 12.7  1.010 -99.9 -99.99 -9.99
2019/04/20 21:48 EDT    2.71   3.18    9  187   13  65.3  61.5 1009.0 12.7  1.010 -99.9 -99.99 -9.99
2019/04/20 21:54 EDT    2.76   3.25    6  188   11  64.9  61.5 1009.3 12.7  1.010 -99.9 -99.99 -9.99
2019/04/20 22:00 EDT    2.80   3.31    7  199   11  64.8  61.3 1009.5 12.7  1.010 -99.9 -99.99 -9.99
2019/04/20 22:06 EDT    2.85   3.37   10  196   16  63.7  61.3 1009.7 12.7  1.010 -99.9 -99.99 -9.99
2019/04/20 22:12 EDT    2.88   3.41   13  251   17  62.4  61.3 1009.8 12.7  1.010 -99.9 -99.99 -9.99
2019/04/20 22:18 EDT    2.92   3.46   12  265   17  62.2  61.3 1010.0 12.7  1.010 -99.9 -99.99 -9.99
2019/04/20 22:24 EDT    2.95   3.49    9  262   15  62.1  61.3 1010.2 12.7  1.010 -99.9 -99.99 -9.99
2019/04/20 22:30 EDT    2.98   3.52    9  255   12  62.1  61.3 1010.3 12.7  1.009 -99.9 -99.99 -9.99
2019/04/20 22:36 EDT    3.00   3.55   10  263   11  61.9  61.3 1010.2 12.7  1.010 -99.9 -99.99 -9.99
2019/04/20 22:42 EDT    3.02   3.57   10  262   12  61.7  61.3 1010.3 12.7  1.010 -99.9 -99.99 -9.99
2019/04/20 22:48 EDT    3.04   3.59    9  272   11  61.3  61.3 1010.3 12.7  1.010 -99.9 -99.99 -9.99
2019/04/20 22:54 EDT    3.05   3.59    9  267   10  61.3  61.3 1010.3 12.8  1.010 -99.9 -99.99 -9.99
2019/04/20 23:00 EDT    3.05   3.59    8  263   10  61.3  61.3 1010.4 12.8  1.010 -99.9 -99.99 -9.99
2019/04/20 23:06 EDT    3.06   3.59   10  247   11  61.2  61.3 1010.6 12.8  1.010 -99.9 -99.99 -9.99
2019/04/20 23:12 EDT    3.05   3.59    7  234   10  61.0  61.3 1010.7 12.8  1.010 -99.9 -99.99 -9.99
2019/04/20 23:18 EDT    3.05   3.60    7  232    8  61.0  61.3 1010.8 12.8  1.010 -99.9 -99.99 -9.99
2019/04/20 23:24 EDT    3.04   3.61    6  246    9  60.8  61.3 1010.9 12.8  1.010 -99.9 -99.99 -9.99
2019/04/20 23:30 EDT    3.03   3.60    7  252    9  60.8  61.3 1010.8 12.8  1.010 -99.9 -99.99 -9.99
2019/04/20 23:36 EDT    3.01   3.59    9  255   12  60.4  61.3 1010.9 12.8  1.010 -99.9 -99.99 -9.99
2019/04/20 23:42 EDT    2.99   3.57    9  275   10  60.3  61.3 1010.9 12.8  1.010 -99.9 -99.99 -9.99
2019/04/20 23:48 EDT    2.97   3.55   10  273   13  59.9  61.3 1010.8 12.9  1.010 -99.9 -99.99 -9.99
2019/04/20 23:54 EDT    2.94   3.53    9  279   13  59.7  61.3 1010.9 12.9  1.010 -99.9 -99.99 -9.99
2019/04/21 00:00 EDT    2.91   3.49    9  270   12  59.5  61.3 1011.0 12.9  1.010 -99.9 -99.99 -9.99
2019/04/21 00:06 EDT    2.87   3.44    9  254   12  59.4  61.3 1011.1 12.9  1.010 -99.9 -99.99 -9.99
2019/04/21 00:12 EDT    2.84   3.40   11  265   13  59.2  61.3 1011.2 12.9  1.010 -99.9 -99.99 -9.99
2019/04/21 00:18 EDT    2.80   3.34   11  258   14  59.0  61.3 1011.2 12.9  1.010 -99.9 -99.99 -9.99
2019/04/21 00:24 EDT    2.75   3.29   11  266   14  58.8  61.3 1011.2 12.9  1.010 -99.9 -99.99 -9.99
2019/04/21 00:30 EDT    2.71   3.24   11  257   17  58.8  61.3 1011.3 12.9  1.010 -99.9 -99.99 -9.99
2019/04/21 00:36 EDT    2.66   3.18    9  252   14  58.6  61.3 1011.3 12.8  1.010 -99.9 -99.99 -9.99
2019/04/21 00:42 EDT    2.61   3.12    7  245   13  58.5  61.2 1011.4 12.8  1.010 -99.9 -99.99 -9.99
2019/04/21 00:48 EDT    2.55   3.05    6  230    8  58.3  61.3 1011.7 12.7  1.010 -99.9 -99.99 -9.99
2019/04/21 00:54 EDT    2.50   2.99    6  228    9  57.9  61.3 1011.7 12.7  1.010 -99.9 -99.99 -9.99
2019/04/21 01:00 EDT    2.44   2.92    5  223    7  57.7  61.3 1011.7 12.7  1.010 -99.9 -99.99 -9.99
2019/04/21 01:06 EDT    2.38   2.86    8  228   11  57.9  61.3 1011.6 12.8  1.010 -99.9 -99.99 -9.99
2019/04/21 01:12 EDT    2.32   2.79    9  238   13  57.7  61.3 1011.6 12.8  1.010 -99.9 -99.99 -9.99
2019/04/21 01:18 EDT    2.25   2.72    7  243   10  57.7  61.3 1011.6 12.8  1.010 -99.9 -99.99 -9.99
2019/04/21 01:24 EDT    2.19   2.64    8  238   11  57.6  61.3 1011.5 12.8  1.010 -99.9 -99.99 -9.99
2019/04/21 01:30 EDT    2.12   2.57    8  241   11  57.6  61.3 1011.5 12.8  1.010 -99.9 -99.99 -9.99
2019/04/21 01:36 EDT    2.05   2.50    7  234   11  57.4  61.3 1011.4 12.8  1.010 -99.9 -99.99 -9.99
2019/04/21 01:42 EDT    1.98   2.43    6  241   11  57.4  61.3 1011.4 12.8  1.010 -99.9 -99.99 -9.99
2019/04/21 01:48 EDT    1.91   2.36    5  244    8  57.4  61.3 1011.4 12.8  1.010 -99.9 -99.99 -9.99
2019/04/21 01:54 EDT    1.84   2.27    8  242   11  57.4  61.3 1011.4 12.8  1.010 -99.9 -99.99 -9.99
2019/04/21 02:00 EDT    1.77   2.19    8  250   11  57.4  61.3 1011.4 12.8  1.010 -99.9 -99.99 -9.99
2019/04/21 02:06 EDT    1.69   2.12    5  249   10  57.2  61.2 1011.5 12.8  1.010 -99.9 -99.99 -9.99
2019/04/21 02:12 EDT    1.62   2.06    5  238    7  57.2  61.2 1011.7 12.8  1.010 -99.9 -99.99 -9.99
2019/04/21 02:18 EDT    1.55   1.99    7  233   10  57.2  61.2 1011.6 12.8  1.010 -99.9 -99.99 -9.99
2019/04/21 02:24 EDT    1.47   1.92    9  234   11  57.0  61.2 1011.8 12.8  1.010 -99.9 -99.99 -9.99
2019/04/21 02:30 EDT    1.40   1.84    8  232   10  57.2  61.2 1011.8 12.8  1.010 -99.9 -99.99 -9.99
2019/04/21 02:36 EDT    1.32   1.77   11  230   17  57.2  61.2 1012.1 12.8  1.010 -99.9 -99.99 -9.99
2019/04/21 02:42 EDT    1.25   1.69    9  229   14  57.0  61.2 1012.0 12.8  1.010 -99.9 -99.99 -9.99
2019/04/21 02:48 EDT    1.18   1.62    9  220   11  57.0  61.2 1012.1 12.8  1.010 -99.9 -99.99 -9.99
2019/04/21 02:54 EDT    1.10   1.54    7  236   10  56.8  61.2 1012.4 12.8  1.010 -99.9 -99.99 -9.99
2019/04/21 03:00 EDT    1.03   1.47    9  230   11  56.7  61.2 1012.4 12.8  1.010 -99.9 -99.99 -9.99
2019/04/21 03:06 EDT    0.96   1.40    9  233   11  56.5  61.2 1012.4 12.9  1.010 -99.9 -99.99 -9.99
2019/04/21 03:12 EDT    0.89   1.33    9  231   11  56.5  61.2 1012.4 12.7  1.010 -99.9 -99.99 -9.99
2019/04/21 03:18 EDT    0.82   1.26    8  239   10  56.1  61.3 1012.5 12.6  1.009 -99.9 -99.99 -9.99
2019/04/21 03:24 EDT    0.75   1.19    8  242   12  56.1  61.2 1012.5 12.7  1.009 -99.9 -99.99 -9.99
2019/04/21 03:30 EDT    0.69   1.13    7  240    9  55.8  61.2 1012.5 12.6  1.009 -99.9 -99.99 -9.99
2019/04/21 03:36 EDT    0.62   1.06    9  235   11  55.8  61.2 1012.5 12.6  1.009 -99.9 -99.99 -9.99
2019/04/21 03:42 EDT    0.56   1.00    8  228   10  55.6  61.2 1012.4 12.7  1.009 -99.9 -99.99 -9.99
2019/04/21 03:48 EDT    0.50   0.94    7  236    9  55.6  61.2 1012.6 12.6  1.009 -99.9 -99.99 -9.99
2019/04/21 03:54 EDT    0.44   0.87    6  231    9  55.4  61.2 1012.6 12.6  1.009 -99.9 -99.99 -9.99
2019/04/21 04:00 EDT    0.39   0.79    7  239   10  55.2  61.2 1012.7 12.6  1.009 -99.9 -99.99 -9.99
2019/04/21 04:06 EDT    0.33   0.73    7  243   11  55.2  61.2 1012.6 12.6  1.009 -99.9 -99.99 -9.99
2019/04/21 04:12 EDT    0.28   0.68    6  241   11  55.0  61.2 1012.7 12.7  1.009 -99.9 -99.99 -9.99
2019/04/21 04:18 EDT    0.23   0.65    6  230    9  55.0  61.0 1012.9 12.6  1.010 -99.9 -99.99 -9.99
2019/04/21 04:24 EDT    0.19   0.57    6  224    8  54.9  61.0 1013.0 12.6  1.009 -99.9 -99.99 -9.99
2019/04/21 04:30 EDT    0.15   0.51    8  238    9  54.9  61.0 1012.8 12.5  1.009 -99.9 -99.99 -9.99
2019/04/21 04:36 EDT    0.11   0.50    6  236    9  54.9  61.2 1012.9 12.4  1.009 -99.9 -99.99 -9.99
2019/04/21 04:42 EDT    0.07   0.42    6  221    8  54.7  61.0 1013.2 12.5  1.009 -99.9 -99.99 -9.99
2019/04/21 04:48 EDT    0.04   0.38    5  216    8  54.7  61.0 1013.3 12.5  1.009 -99.9 -99.99 -9.99
2019/04/21 04:54 EDT    0.01   0.36    5  221    7  54.5  61.0 1013.2 12.5  1.009 -99.9 -99.99 -9.99
2019/04/21 05:00 EDT   -0.01   0.33    5  209    7  54.5  61.0 1013.4 12.5  1.009 -99.9 -99.99 -9.99
2019/04/21 05:06 EDT   -0.04   0.31    5  218    7  54.5  61.0 1013.6 12.5  1.009 -99.9 -99.99 -9.99
2019/04/21 05:12 EDT   -0.05   0.30    4  231    5  54.3  61.2 1013.5 12.4  1.009 -99.9 -99.99 -9.99
2019/04/21 05:18 EDT   -0.07   0.29    3  228    5  54.3  61.2 1013.4 12.3  1.009 -99.9 -99.99 -9.99
2019/04/21 05:24 EDT   -0.08   0.28    4  229    5  54.3  61.2 1013.4 12.3  1.009 -99.9 -99.99 -9.99
2019/04/21 05:30 EDT   -0.09   0.27    4  255    5  54.3  61.2 1013.2 12.3  1.009 -99.9 -99.99 -9.99
2019/04/21 05:36 EDT   -0.09   0.26    5  256    6  54.5  61.2 1013.2 12.3  1.009 -99.9 -99.99 -9.99
2019/04/21 05:42 EDT   -0.09   0.25    4  245    7  54.3  61.2 1013.5 12.3  1.009 -99.9 -99.99 -9.99
2019/04/21 05:48 EDT   -0.09   0.24    4  219    5  54.0  61.2 1013.4 12.2  1.009 -99.9 -99.99 -9.99
2019/04/21 05:54 EDT   -0.08   0.24    4  228    4  53.6  61.2 1013.5 12.2  1.009 -99.9 -99.99 -9.99
2019/04/21 06:00 EDT   -0.07   0.25    4  226    4  53.2  61.3 1013.6 12.2  1.009 -99.9 -99.99 -9.99
2019/04/21 06:06 EDT   -0.06   0.26    3  211    4  53.1  61.3 1013.8 12.1  1.009 -99.9 -99.99 -9.99
2019/04/21 06:12 EDT   -0.04   0.28    3  204    4  52.9  61.3 1013.9 12.1  1.009 -99.9 -99.99 -9.99
2019/04/21 06:18 EDT   -0.02   0.29    4  175    4  53.2  61.3 1014.2 12.1  1.009 -99.9 -99.99 -9.99
2019/04/21 06:24 EDT    0.00   0.31    3  181    4  53.1  61.3 1014.2 12.1  1.009 -99.9 -99.99 -9.99
2019/04/21 06:30 EDT    0.03   0.34    3  190    3  53.1  61.3 1014.3 12.1  1.009 -99.9 -99.99 -9.99
2019/04/21 06:36 EDT    0.06   0.37    3  192    4  53.1  61.3 1014.3 12.1  1.009 -99.9 -99.99 -9.99
2019/04/21 06:42 EDT    0.09   0.41    3  218    4  52.3  61.3 1014.3 12.1  1.009 -99.9 -99.99 -9.99
2019/04/21 06:48 EDT    0.13   0.46    3  233    4  52.3  61.3 1014.4 12.1  1.009 -99.9 -99.99 -9.99
2019/04/21 06:54 EDT    0.17   0.50    3  230    3  52.3  61.3 1014.4 12.1  1.009 -99.9 -99.99 -9.99
2019/04/21 07:00 EDT    0.21   0.54    4  217    4  52.5  61.3 1014.5 12.0  1.009 -99.9 -99.99 -9.99
2019/04/21 07:06 EDT    0.25   0.58    3  230    4  52.7  61.3 1014.6 12.0  1.009 -99.9 -99.99 -9.99
2019/04/21 07:12 EDT    0.30   0.63    3  234    4  52.9  61.3 1014.7 12.0  1.009 -99.9 -99.99 -9.99
2019/04/21 07:18 EDT    0.35   0.69    6  239    7  53.8  61.3 1014.7 12.0  1.009 -99.9 -99.99 -9.99
2019/04/21 07:24 EDT    0.40   0.74    5  253    8  54.3  61.3 1014.7 12.0  1.009 -99.9 -99.99 -9.99
2019/04/21 07:30 EDT    0.46   0.79    6  259    7  54.3  61.3 1014.7 12.0  1.009 -99.9 -99.99 -9.99
2019/04/21 07:36 EDT    0.51   0.85    6  265    7  54.5  61.3 1014.6 12.0  1.009 -99.9 -99.99 -9.99
2019/04/21 07:42 EDT    0.57   0.91    5  273    7  54.7  61.3 1014.7 12.0  1.009 -99.9 -99.99 -9.99
2019/04/21 07:48 EDT    0.63   0.97    6  268    8  54.7  61.3 1014.8 12.0  1.009 -99.9 -99.99 -9.99
2019/04/21 07:54 EDT    0.70   1.03    6  260    7  55.0  61.3 1014.8 12.0  1.009 -99.9 -99.99 -9.99
2019/04/21 08:00 EDT    0.76   1.10    7  263    8  55.0  61.3 1014.8 12.0  1.009 -99.9 -99.99 -9.99
2019/04/21 08:06 EDT    0.83   1.16    6  280    7  55.2  61.3 1014.7 12.0  1.009 -99.9 -99.99 -9.99
2019/04/21 08:12 EDT    0.90   1.23    8  272   10  55.0  61.3 1014.7 12.0  1.009 -99.9 -99.99 -9.99
2019/04/21 08:18 EDT    0.96   1.30    8  275   11  55.4  61.3 1014.7 12.0  1.009 -99.9 -99.99 -9.99
2019/04/21 08:24 EDT    1.03   1.36    7  252   10  55.6  61.3 1014.8 12.0  1.009 -99.9 -99.99 -9.99
2019/04/21 08:30 EDT    1.10   1.42    8  255   10  55.8  61.2 1014.9 12.1  1.009 -99.9 -99.99 -9.99
2019/04/21 08:36 EDT    1.17   1.49    7  248   10  55.9  61.0 1015.0 12.2  1.009 -99.9 -99.99 -9.99
2019/04/21 08:42 EDT    1.25   1.57    7  209    9  56.3  61.0 1015.0 12.2  1.009 -99.9 -99.99 -9.99
2019/04/21 08:48 EDT    1.32   1.66    6  254   10  56.3  61.0 1015.0 12.3  1.009 -99.9 -99.99 -9.99
2019/04/21 08:54 EDT    1.39   1.74    8  219   10  56.3  61.0 1015.0 12.3  1.009 -99.9 -99.99 -9.99
2019/04/21 09:00 EDT    1.46   1.82    8  219   10  56.3  61.2 1015.1 12.2  1.009 -99.9 -99.99 -9.99
2019/04/21 09:06 EDT    1.53   1.91    7  215    9  56.8  61.2 1015.0 12.2  1.009 -99.9 -99.99 -9.99
2019/04/21 09:12 EDT    1.60   2.00    9  191   11  57.0  61.0 1015.1 12.3  1.009 -99.9 -99.99 -9.99
2019/04/21 09:18 EDT    1.67   2.08    8  207   12  57.0  61.2 1015.1 12.3  1.009 -99.9 -99.99 -9.99
2019/04/21 09:24 EDT    1.74   2.14    6  195   11  57.6  61.2 1015.2 12.3  1.009 -99.9 -99.99 -9.99
2019/04/21 09:30 EDT    1.80   2.20    7  198   11  57.4  61.2 1015.3 12.3  1.009 -99.9 -99.99 -9.99
2019/04/21 09:36 EDT    1.87   2.26   10  212   12  57.2  61.2 1015.3 12.3  1.009 -99.9 -99.99 -9.99
2019/04/21 09:42 EDT    1.93   2.33    8  209   12  57.6  61.2 1015.3 12.3  1.009 -99.9 -99.99 -9.99
2019/04/21 09:48 EDT    1.99   2.40    6  194   11  58.1  61.2 1015.4 12.3  1.009 -99.9 -99.99 -9.99
2019/04/21 09:54 EDT    2.05   2.47   10  215   11  57.7  61.2 1015.5 12.3  1.009 -99.9 -99.99 -9.99
2019/04/21 10:00 EDT    2.11   2.54    9  207   12  57.9  61.3 1015.6 12.3  1.009 -99.9 -99.99 -9.99
2019/04/21 10:06 EDT    2.16   2.61    8  193   11  58.3  61.3 1015.7 12.3  1.009 -99.9 -99.99 -9.99
2019/04/21 10:12 EDT    2.21   2.67    9  195   11  58.5  61.3 1015.7 12.3  1.009 -99.9 -99.99 -9.99
2019/04/21 10:18 EDT    2.26   2.74   10  210   14  58.6  61.3 1015.9 12.3  1.009 -99.9 -99.99 -9.99
2019/04/21 10:24 EDT    2.30   2.80    8  211   11  58.3  61.3 1015.9 12.3  1.009 -99.9 -99.99 -9.99
2019/04/21 10:30 EDT    2.34   2.86    6  225   11  58.5  61.3 1015.9 12.3  1.009 -99.9 -99.99 -9.99
2019/04/21 10:36 EDT    2.38   2.90    6  209   13  59.0  61.3 1016.0 12.3  1.009 -99.9 -99.99 -9.99
2019/04/21 10:42 EDT    2.42   2.95    8  187   12  59.2  61.3 1016.0 12.3  1.009 -99.9 -99.99 -9.99
2019/04/21 10:48 EDT    2.45   2.98    9  173   12  58.8  61.5 1016.1 12.3  1.009 -99.9 -99.99 -9.99
2019/04/21 10:54 EDT    2.48   3.01    8  159   10  59.2  61.5 1016.1 12.3  1.009 -99.9 -99.99 -9.99
2019/04/21 11:00 EDT    2.50   3.05   12  212   16  58.6  61.5 1016.1 12.3  1.009 -99.9 -99.99 -9.99
2019/04/21 11:06 EDT    2.52   3.08    5  199   10  59.5  61.5 1016.2 12.3  1.009 -99.9 -99.99 -9.99
2019/04/21 11:12 EDT    2.54   3.11    9  212   11  58.8  61.5 1016.2 12.3  1.009 -99.9 -99.99 -9.99
2019/04/21 11:18 EDT    2.55   3.12    5  231   12  59.0  61.3 1016.2 12.3  1.009 -99.9 -99.99 -9.99
2019/04/21 11:24 EDT    2.56   3.13   10  176   12  59.5  61.3 1016.2 12.4  1.009 -99.9 -99.99 -9.99
2019/04/21 11:30 EDT    2.56   3.15    7  170   15  59.7  61.3 1016.2 12.4  1.009 -99.9 -99.99 -9.99
2019/04/21 11:36 EDT    2.56   3.15    8  215   13  59.9  61.2 1016.1 12.4  1.009 -99.9 -99.99 -9.99
2019/04/21 11:42 EDT    2.56   3.14    7  218   12  59.9  61.2 1016.1 12.5  1.009 -99.9 -99.99 -9.99
2019/04/21 11:48 EDT    2.56   3.13    8  196   12  59.9  61.2 1016.1 12.5  1.009 -99.9 -99.99 -9.99
2019/04/21 11:54 EDT    2.55   3.11   10  228   12  59.7  61.2 1016.1 12.5  1.009 -99.9 -99.99 -9.99
2019/04/21 12:00 EDT    2.53   3.08    6  217   10  60.1  61.0 1016.1 12.6  1.009 -99.9 -99.99 -9.99
2019/04/21 12:06 EDT    2.52   3.05    9  215   15  60.4  61.0 1016.0 12.6  1.009 -99.9 -99.99 -9.99
2019/04/21 12:12 EDT    2.50   3.02    3  213    7  61.2  61.0 1016.0 12.6  1.010 -99.9 -99.99 -9.99
2019/04/21 12:18 EDT    2.47   2.98    5  209   12  60.8  61.0 1016.0 12.7  1.010 -99.9 -99.99 -9.99
2019/04/21 12:24 EDT    2.45   2.94    7  238    9  60.4  61.0 1015.9 12.7  1.010 -99.9 -99.99 -9.99
2019/04/21 12:30 EDT    2.42   2.91    6  236    9  60.4  61.0 1015.9 12.7  1.010 -99.9 -99.99 -9.99
2019/04/21 12:36 EDT    2.39   2.87    4  273    8  60.4  61.0 1015.8 12.7  1.010 -99.9 -99.99 -9.99
2019/04/21 12:42 EDT    2.35   2.84    3  248    8  60.8  61.0 1015.7 12.7  1.010 -99.9 -99.99 -9.99
2019/04/21 12:48 EDT    2.31   2.80    4  259   11  61.0  61.0 1015.7 12.7  1.010 -99.9 -99.99 -9.99
2019/04/21 12:54 EDT    2.27   2.75    5  218   11  61.3  61.0 1015.6 12.7  1.010 -99.9 -99.99 -9.99
2019/04/21 13:00 EDT    2.23   2.71    5  198   11  61.7  61.0 1015.5 12.7  1.010 -99.9 -99.99 -9.99
2019/04/21 13:06 EDT    2.19   2.66    7  211   11  61.3  61.0 1015.6 12.7  1.010 -99.9 -99.99 -9.99
2019/04/21 13:12 EDT    2.14   2.62    5  188    7  62.1  61.0 1015.5 12.7  1.010 -99.9 -99.99 -9.99
2019/04/21 13:18 EDT    2.09   2.55    2  241   11  62.1  61.0 1015.6 12.7  1.010 -99.9 -99.99 -9.99
2019/04/21 13:24 EDT    2.04   2.49    7  253   10  61.7  61.0 1015.6 12.7  1.010 -99.9 -99.99 -9.99
2019/04/21 13:30 EDT    1.99   2.42    1  313    6  61.9  61.3 1015.6 12.6  1.009 -99.9 -99.99 -9.99
2019/04/21 13:36 EDT    1.93   2.36    4  291    9  61.9  61.2 1015.6 12.6  1.009 -99.9 -99.99 -9.99
2019/04/21 13:42 EDT    1.88   2.28    8  270   10  62.2  61.2 1015.6 12.6  1.009 -99.9 -99.99 -9.99
2019/04/21 13:48 EDT    1.82   2.21    7  238   12  62.2  61.2 1015.6 12.7  1.010 -99.9 -99.99 -9.99
2019/04/21 13:54 EDT    1.76   2.14    8  240   11  62.2  61.2 1015.6 12.7  1.010 -99.9 -99.99 -9.99
2019/04/21 14:00 EDT    1.70   2.07    5  204    8  62.8  61.3 1015.6 12.6  1.009 -99.9 -99.99 -9.99
2019/04/21 14:06 EDT    1.64   2.01    5  192    7  63.3  61.5 1015.6 12.6  1.009 -99.9 -99.99 -9.99
2019/04/21 14:12 EDT    1.58   1.94    6  188    7  63.3  61.3 1015.7 12.6  1.009 -99.9 -99.99 -9.99
2019/04/21 14:18 EDT    1.52   1.87    4  154    8  63.1  61.2 1015.7 12.7  1.009 -99.9 -99.99 -9.99
2019/04/21 14:24 EDT    1.45   1.81    1  240    7  63.1  61.2 1015.7 12.7  1.010 -99.9 -99.99 -9.99
2019/04/21 14:30 EDT    1.39   1.74    7   58   10  61.0  61.2 1015.7 12.7  1.010 -99.9 -99.99 -9.99
2019/04/21 14:36 EDT    1.32   1.67    7   77    8  60.8  61.2 1015.7 12.7  1.009 -99.9 -99.99 -9.99
2019/04/21 14:42 EDT    1.26   1.60    8   74    8  60.8  61.3 1015.6 12.6  1.009 -99.9 -99.99 -9.99
2019/04/21 14:48 EDT    1.20   1.54    8   73    9  60.8  61.3 1015.6 12.6  1.009 -99.9 -99.99 -9.99
2019/04/21 14:54 EDT    1.13   1.47    7   84    9  61.0  61.3 1015.7 12.6  1.009 -99.9 -99.99 -9.99
2019/04/21 15:00 EDT    1.07   1.41    8   80    9  60.6  61.2 1015.8 12.6  1.009 -99.9 -99.99 -9.99
2019/04/21 15:06 EDT    1.01   1.35    6   79    9  60.8  61.0 1015.8 12.7  1.010 -99.9 -99.99 -9.99
2019/04/21 15:12 EDT    0.94   1.29    6   71   10  61.0  61.0 1015.9 12.8  1.010 -99.9 -99.99 -9.99
2019/04/21 15:18 EDT    0.88   1.23    9   73   10  61.0  62.4 1015.8 12.4  1.009 -99.9 -99.99 -9.99
2019/04/21 15:24 EDT    0.82   1.19   10   82   11  60.8  61.9 1015.9 12.4  1.009 -99.9 -99.99 -9.99
2019/04/21 15:30 EDT    0.76   1.15   10   97   12  60.6  61.9 1016.0 12.4  1.009 -99.9 -99.99 -9.99
2019/04/21 15:36 EDT    0.70   1.17   13   98   15  60.1  61.9 1016.1 12.3  1.009 -99.9 -99.99 -9.99
2019/04/21 15:42 EDT    0.65   1.04   12  106   15  60.1  61.9 1016.0 12.3  1.009 -99.9 -99.99 -9.99
2019/04/21 15:48 EDT    0.59   0.99   11  109   13  60.1  61.9 1015.8 12.3  1.009 -99.9 -99.99 -9.99
2019/04/21 15:54 EDT    0.54   0.95   10  120   13  60.3  62.1 1015.8 12.3  1.009 -99.9 -99.99 -9.99
2019/04/21 16:00 EDT    0.49   0.91   12  121   15  60.3  61.9 1015.8 12.3  1.009 -99.9 -99.99 -9.99
2019/04/21 16:06 EDT    0.44   0.86   10  125   12  60.3  61.9 1015.7 12.3  1.009 -99.9 -99.99 -9.99
2019/04/21 16:12 EDT    0.39   0.82    9  121   11  60.4  61.9 1015.7 12.3  1.009 -99.9 -99.99 -9.99
2019/04/21 16:18 EDT    0.35   0.77    7  125   11  60.4  62.1 1015.6 12.2  1.009 -99.9 -99.99 -9.99
2019/04/21 16:24 EDT    0.30   0.74    6  139    9  60.3  62.1 1015.6 12.2  1.009 -99.9 -99.99 -9.99
2019/04/21 16:30 EDT    0.26   0.69    5  119    6  60.6  62.1 1015.5 12.2  1.009 -99.9 -99.99 -9.99
2019/04/21 16:36 EDT    0.23   0.65    5  126    6  60.8  62.2 1015.5 12.2  1.009 -99.9 -99.99 -9.99
2019/04/21 16:42 EDT    0.19   0.61    4  118    5  61.2  62.8 1015.4 12.1  1.009 -99.9 -99.99 -9.99
2019/04/21 16:48 EDT    0.16 -99.99 -999 -999 -999 -99.9 -99.9 -999.9 -9.9 -9.999 -99.9 -99.99 -9.99

Revised: 08/08/2018
NOAA / National Ocean Service
Web site owner: Center for Operational Oceanographic Products and Services